Observation data for Tahoka on 07/11/2018      Previous  Date       Current Mesonet Observations  Soil Data  Daily Summary Page  Observations in Plain Language
KTAS 110500Z 16005KT 24/15 A3014 RMK A01 T02370152  RH  059%=      5-min Rain = 0
KTAS 110501Z 16005KT 24/15 A3014 RMK A01 T02370152  RH  059%=      5-min Rain = 0
KTAS 110502Z 16006KT 24/15 A3014 RMK A01 T02370152  RH  059%=      5-min Rain = 0
KTAS 110503Z 16005KT 24/15 A3014 RMK A01 T02370152  RH  059%=      5-min Rain = 0
KTAS 110504Z 16005KT 24/15 A3014 RMK A01 T02370152  RH  059%=      5-min Rain = 0
KTAS 110505Z 16005KT 24/15 A3014 RMK A01 T02360152  RH  059%=      5-min Rain = 0
KTAS 110506Z 17005KT 24/15 A3014 RMK A01 T02360152  RH  059%=      5-min Rain = 0
KTAS 110507Z 17005KT 24/15 A3014 RMK A01 T02360152  RH  059%=      5-min Rain = 0
KTAS 110508Z 17005KT 24/15 A3014 RMK A01 T02360152  RH  060%=      5-min Rain = 0
KTAS 110509Z 17005KT 24/15 A3014 RMK A01 T02350152  RH  060%=      5-min Rain = 0
KTAS 110510Z 17005KT 24/15 A3014 RMK A01 T02350152  RH  060%=      5-min Rain = 0
KTAS 110511Z 17005KT 23/15 A3014 RMK A01 T02340152  RH  060%=      5-min Rain = 0
KTAS 110512Z 17006KT 23/15 A3014 RMK A01 T02330152  RH  060%=      5-min Rain = 0
KTAS 110513Z 17006KT 23/15 A3014 RMK A01 T02330152  RH  060%=      5-min Rain = 0
KTAS 110514Z 17006KT 23/15 A3014 RMK A01 T02320152  RH  060%=      5-min Rain = 0
KTAS 110515Z 17006KT 23/15 A3014 RMK A01 T02320151  RH  060%=      5-min Rain = 0
KTAS 110516Z 17006KT 23/15 A3014 RMK A01 T02320151  RH  060%=      5-min Rain = 0
KTAS 110517Z 16006KT 23/15 A3014 RMK A01 T02330151  RH  060%=      5-min Rain = 0
KTAS 110518Z 17006KT 23/15 A3014 RMK A01 T02330151  RH  060%=      5-min Rain = 0
KTAS 110519Z 16007KT 23/15 A3014 RMK A01 T02340152  RH  060%=      5-min Rain = 0
KTAS 110520Z 17006KT 24/15 A3014 RMK A01 T02350152  RH  060%=      5-min Rain = 0
KTAS 110521Z 17006KT 24/15 A3014 RMK A01 T02350152  RH  059%=      5-min Rain = 0
KTAS 110522Z 17006KT 24/15 A3014 RMK A01 T02350152  RH  060%=      5-min Rain = 0
KTAS 110523Z 17006KT 24/15 A3014 RMK A01 T02350152  RH  060%=      5-min Rain = 0
KTAS 110524Z 17006KT 24/15 A3014 RMK A01 T02350152  RH  060%=      5-min Rain = 0
KTAS 110525Z 17006KT 24/15 A3014 RMK A01 T02350153  RH  060%=      5-min Rain = 0
KTAS 110526Z 17006KT 24/15 A3014 RMK A01 T02350153  RH  060%=      5-min Rain = 0
KTAS 110527Z 16006KT 24/15 A3014 RMK A01 T02360154  RH  060%=      5-min Rain = 0
KTAS 110528Z 16006KT 24/15 A3014 RMK A01 T02360154  RH  060%=      5-min Rain = 0
KTAS 110529Z 16006KT 24/15 A3014 RMK A01 T02360154  RH  060%=      5-min Rain = 0
KTAS 110530Z 16006KT 24/16 A3014 RMK A01 T02360155  RH  060%=      5-min Rain = 0
KTAS 110531Z 16006KT 24/16 A3014 RMK A01 T02360155  RH  060%=      5-min Rain = 0
KTAS 110532Z 16005KT 24/16 A3014 RMK A01 T02360155  RH  060%=      5-min Rain = 0
KTAS 110533Z 16006KT 24/16 A3014 RMK A01 T02360156  RH  060%=      5-min Rain = 0
KTAS 110534Z 16006KT 24/16 A3014 RMK A01 T02360156  RH  061%=      5-min Rain = 0
KTAS 110535Z 16005KT 24/16 A3014 RMK A01 T02360156  RH  061%=      5-min Rain = 0
KTAS 110536Z 16006KT 24/16 A3014 RMK A01 T02360156  RH  061%=      5-min Rain = 0
KTAS 110537Z 16006KT 24/16 A3014 RMK A01 T02360156  RH  061%=      5-min Rain = 0
KTAS 110538Z 16006KT 24/16 A3014 RMK A01 T02360156  RH  061%=      5-min Rain = 0
KTAS 110539Z 16005KT 24/16 A3014 RMK A01 T02360156  RH  061%=      5-min Rain = 0
KTAS 110540Z 16006KT 24/16 A3014 RMK A01 T02360157  RH  061%=      5-min Rain = 0
KTAS 110541Z 16006KT 24/16 A3014 RMK A01 T02350157  RH  061%=      5-min Rain = 0
KTAS 110542Z 16006KT 24/16 A3014 RMK A01 T02360157  RH  061%=      5-min Rain = 0
KTAS 110543Z 16006KT 24/16 A3014 RMK A01 T02360157  RH  061%=      5-min Rain = 0
KTAS 110544Z 16005KT 24/16 A3014 RMK A01 T02360157  RH  061%=      5-min Rain = 0
KTAS 110545Z 16006KT 24/16 A3014 RMK A01 T02350157  RH  061%=      5-min Rain = 0
KTAS 110546Z 16006KT 24/16 A3014 RMK A01 T02350157  RH  062%=      5-min Rain = 0
KTAS 110547Z 15005KT 24/16 A3014 RMK A01 T02350157  RH  062%=      5-min Rain = 0
KTAS 110548Z 16006KT 24/16 A3014 RMK A01 T02350157  RH  062%=      5-min Rain = 0
KTAS 110549Z 16006KT 23/16 A3014 RMK A01 T02340157  RH  062%=      5-min Rain = 0
KTAS 110550Z 16005KT 23/16 A3014 RMK A01 T02340157  RH  062%=      5-min Rain = 0
KTAS 110551Z 16006KT 23/16 A3014 RMK A01 T02340157  RH  062%=      5-min Rain = 0
KTAS 110552Z 16005KT 23/16 A3014 RMK A01 T02330157  RH  062%=      5-min Rain = 0
KTAS 110553Z 16005KT 23/16 A3014 RMK A01 T02330157  RH  062%=      5-min Rain = 0
KTAS 110554Z 16005KT 23/16 A3014 RMK A01 T02330157  RH  062%=      5-min Rain = 0
KTAS 110555Z 16005KT 23/16 A3014 RMK A01 T02330157  RH  063%=      5-min Rain = 0
KTAS 110556Z 16005KT 23/16 A3014 RMK A01 T02320157  RH  063%=      5-min Rain = 0
KTAS 110557Z 16005KT 23/16 A3014 RMK A01 T02320157  RH  063%=      5-min Rain = 0
KTAS 110558Z 16005KT 23/16 A3014 RMK A01 T02320157  RH  063%=      5-min Rain = 0
KTAS 110559Z 16005KT 23/16 A3014 RMK A01 T02320157  RH  063%=      5-min Rain = 0
KTAS 110600Z 16005KT 23/16 A3014 RMK A01 T02310157  RH  063%=      5-min Rain = 0
KTAS 110601Z 17005KT 23/16 A3014 RMK A01 T02310157  RH  063%=      5-min Rain = 0
KTAS 110602Z 17005KT 23/16 A3014 RMK A01 T02300157  RH  063%=      5-min Rain = 0
KTAS 110603Z 17004KT 23/16 A3014 RMK A01 T02300157  RH  063%=      5-min Rain = 0
KTAS 110604Z 17005KT 23/16 A3014 RMK A01 T02290157  RH  064%=      5-min Rain = 0
KTAS 110605Z 17004KT 23/16 A3014 RMK A01 T02290156  RH  064%=      5-min Rain = 0
KTAS 110606Z 17005KT 23/16 A3014 RMK A01 T02280156  RH  064%=      5-min Rain = 0
KTAS 110607Z 17004KT 23/16 A3015 RMK A01 T02280156  RH  064%=      5-min Rain = 0
KTAS 110608Z 17004KT 23/16 A3015 RMK A01 T02270156  RH  064%=      5-min Rain = 0
KTAS 110609Z 17004KT 23/16 A3015 RMK A01 T02270155  RH  064%=      5-min Rain = 0
KTAS 110610Z 17003KT 23/16 A3015 RMK A01 T02260155  RH  064%=      5-min Rain = 0
KTAS 110611Z 17003KT 23/16 A3015 RMK A01 T02260155  RH  064%=      5-min Rain = 0
KTAS 110612Z 17003KT 23/16 A3015 RMK A01 T02260155  RH  064%=      5-min Rain = 0
KTAS 110613Z 17003KT 23/16 A3015 RMK A01 T02250155  RH  064%=      5-min Rain = 0
KTAS 110614Z 17003KT 23/16 A3015 RMK A01 T02250155  RH  065%=      5-min Rain = 0
KTAS 110615Z 17002KT 22/15 A3015 RMK A01 T02240154  RH  065%=      5-min Rain = 0
KTAS 110616Z 17002KT 22/15 A3015 RMK A01 T02240154  RH  065%=      5-min Rain = 0
KTAS 110617Z 18002KT 22/15 A3015 RMK A01 T02230154  RH  065%=      5-min Rain = 0
KTAS 110618Z 18002KT 22/15 A3015 RMK A01 T02230154  RH  065%=      5-min Rain = 0
KTAS 110619Z 18002KT 22/15 A3015 RMK A01 T02220154  RH  065%=      5-min Rain = 0
KTAS 110620Z 18002KT 22/16 A3015 RMK A01 T02220155  RH  065%=      5-min Rain = 0
KTAS 110621Z 18002KT 22/16 A3015 RMK A01 T02220155  RH  066%=      5-min Rain = 0
KTAS 110622Z 18002KT 22/16 A3015 RMK A01 T02220155  RH  066%=      5-min Rain = 0
KTAS 110623Z 18002KT 22/16 A3015 RMK A01 T02220155  RH  066%=      5-min Rain = 0
KTAS 110624Z 18002KT 22/16 A3015 RMK A01 T02220155  RH  066%=      5-min Rain = 0
KTAS 110625Z 18002KT 22/16 A3015 RMK A01 T02220155  RH  066%=      5-min Rain = 0
KTAS 110626Z 18002KT 22/16 A3014 RMK A01 T02220155  RH  066%=      5-min Rain = 0
KTAS 110627Z 18002KT 22/15 A3014 RMK A01 T02220154  RH  066%=      5-min Rain = 0
KTAS 110628Z 18001KT 22/15 A3014 RMK A01 T02220154  RH  066%=      5-min Rain = 0
KTAS 110629Z 19001KT 22/15 A3014 RMK A01 T02210153  RH  066%=      5-min Rain = 0
KTAS 110630Z 19001KT 22/15 A3014 RMK A01 T02190153  RH  066%=      5-min Rain = 0
KTAS 110631Z 19001KT 22/15 A3014 RMK A01 T02180152  RH  066%=      5-min Rain = 0
KTAS 110632Z 19001KT 22/15 A3014 RMK A01 T02180152  RH  066%=      5-min Rain = 0
KTAS 110633Z 19001KT 22/15 A3014 RMK A01 T02180152  RH  066%=      5-min Rain = 0
KTAS 110634Z 19001KT 22/15 A3014 RMK A01 T02170152  RH  066%=      5-min Rain = 0
KTAS 110635Z 19001KT 22/15 A3014 RMK A01 T02170151  RH  066%=      5-min Rain = 0
KTAS 110636Z 19001KT 22/15 A3014 RMK A01 T02170151  RH  066%=      5-min Rain = 0
KTAS 110637Z 19001KT 22/15 A3014 RMK A01 T02170152  RH  066%=      5-min Rain = 0
KTAS 110638Z 19001KT 22/15 A3014 RMK A01 T02170152  RH  067%=      5-min Rain = 0
KTAS 110639Z 19001KT 22/15 A3014 RMK A01 T02160153  RH  067%=      5-min Rain = 0
KTAS 110640Z 18001KT 22/15 A3014 RMK A01 T02160152  RH  067%=      5-min Rain = 0
KTAS 110641Z 18002KT 22/15 A3014 RMK A01 T02160152  RH  067%=      5-min Rain = 0
KTAS 110642Z 18001KT 22/15 A3014 RMK A01 T02150151  RH  067%=      5-min Rain = 0
KTAS 110643Z 18001KT 22/15 A3014 RMK A01 T02150151  RH  067%=      5-min Rain = 0
KTAS 110644Z 17001KT 21/15 A3014 RMK A01 T02140151  RH  067%=      5-min Rain = 0
KTAS 110645Z 17001KT 21/15 A3014 RMK A01 T02140150  RH  067%=      5-min Rain = 0
KTAS 110646Z 16001KT 21/15 A3014 RMK A01 T02130150  RH  067%=      5-min Rain = 0
KTAS 110647Z 15001KT 21/15 A3014 RMK A01 T02130151  RH  068%=      5-min Rain = 0
KTAS 110648Z 15002KT 21/15 A3014 RMK A01 T02130153  RH  068%=      5-min Rain = 0
KTAS 110649Z 14002KT 21/15 A3014 RMK A01 T02130153  RH  068%=      5-min Rain = 0
KTAS 110650Z 14002KT 21/15 A3014 RMK A01 T02140154  RH  069%=      5-min Rain = 0
KTAS 110651Z 13002KT 21/15 A3014 RMK A01 T02140154  RH  068%=      5-min Rain = 0
KTAS 110652Z 13002KT 21/15 A3014 RMK A01 T02130153  RH  068%=      5-min Rain = 0
KTAS 110653Z 12001KT 21/15 A3014 RMK A01 T02120151  RH  068%=      5-min Rain = 0
KTAS 110654Z 12001KT 21/15 A3014 RMK A01 T02110151  RH  068%=      5-min Rain = 0
KTAS 110655Z 11001KT 21/15 A3014 RMK A01 T02110151  RH  068%=      5-min Rain = 0
KTAS 110656Z 11002KT 21/15 A3014 RMK A01 T02100151  RH  069%=      5-min Rain = 0
KTAS 110657Z 11002KT 21/15 A3014 RMK A01 T02100152  RH  069%=      5-min Rain = 0
KTAS 110658Z 12002KT 21/15 A3014 RMK A01 T02110154  RH  070%=      5-min Rain = 0
KTAS 110659Z 12003KT 21/16 A3014 RMK A01 T02120155  RH  070%=      5-min Rain = 0
KTAS 110700Z 12002KT 21/16 A3014 RMK A01 T02130155  RH  069%=      5-min Rain = 0
KTAS 110701Z 12003KT 21/15 A3014 RMK A01 T02130154  RH  069%=      5-min Rain = 0
KTAS 110702Z 13002KT 21/15 A3014 RMK A01 T02130154  RH  069%=      5-min Rain = 0
KTAS 110703Z 13002KT 21/15 A3014 RMK A01 T02120154  RH  069%=      5-min Rain = 0
KTAS 110704Z 14003KT 21/15 A3014 RMK A01 T02120153  RH  069%=      5-min Rain = 0
KTAS 110705Z 14003KT 21/15 A3014 RMK A01 T02120153  RH  069%=      5-min Rain = 0
KTAS 110706Z 14003KT 21/15 A3014 RMK A01 T02110152  RH  069%=      5-min Rain = 0
KTAS 110707Z 14002KT 21/15 A3014 RMK A01 T02110152  RH  069%=      5-min Rain = 0
KTAS 110708Z 14003KT 21/15 A3014 RMK A01 T02100152  RH  069%=      5-min Rain = 0
KTAS 110709Z 14003KT 21/15 A3014 RMK A01 T02100152  RH  070%=      5-min Rain = 0
KTAS 110710Z 14003KT 21/15 A3014 RMK A01 T02100153  RH  070%=      5-min Rain = 0
KTAS 110711Z 14003KT 21/15 A3014 RMK A01 T02090152  RH  070%=      5-min Rain = 0
KTAS 110712Z 14003KT 21/15 A3014 RMK A01 T02090152  RH  070%=      5-min Rain = 0
KTAS 110713Z 14003KT 21/15 A3014 RMK A01 T02090152  RH  070%=      5-min Rain = 0
KTAS 110714Z 15003KT 21/15 A3014 RMK A01 T02090152  RH  070%=      5-min Rain = 0
KTAS 110715Z 15004KT 21/15 A3014 RMK A01 T02080152  RH  070%=      5-min Rain = 0
KTAS 110716Z 15004KT 21/15 A3014 RMK A01 T02080152  RH  070%=      5-min Rain = 0
KTAS 110717Z 15004KT 21/15 A3014 RMK A01 T02080152  RH  070%=      5-min Rain = 0
KTAS 110718Z 15004KT 21/15 A3014 RMK A01 T02080152  RH  070%=      5-min Rain = 0
KTAS 110719Z 15004KT 21/15 A3014 RMK A01 T02080152  RH  070%=      5-min Rain = 0
KTAS 110720Z 15003KT 21/15 A3014 RMK A01 T02070151  RH  070%=      5-min Rain = 0
KTAS 110721Z 16003KT 21/15 A3014 RMK A01 T02070151  RH  070%=      5-min Rain = 0
KTAS 110722Z 16003KT 21/15 A3014 RMK A01 T02060150  RH  070%=      5-min Rain = 0
KTAS 110723Z 16004KT 21/15 A3014 RMK A01 T02060150  RH  070%=      5-min Rain = 0
KTAS 110724Z 16004KT 21/15 A3014 RMK A01 T02060152  RH  071%=      5-min Rain = 0
KTAS 110725Z 16004KT 21/15 A3014 RMK A01 T02060152  RH  071%=      5-min Rain = 0
KTAS 110726Z 16004KT 21/15 A3014 RMK A01 T02060152  RH  071%=      5-min Rain = 0
KTAS 110727Z 16004KT 21/15 A3014 RMK A01 T02060152  RH  071%=      5-min Rain = 0
KTAS 110728Z 16004KT 21/15 A3014 RMK A01 T02060151  RH  071%=      5-min Rain = 0
KTAS 110729Z 16004KT 21/15 A3014 RMK A01 T02050151  RH  071%=      5-min Rain = 0
KTAS 110730Z 16004KT 21/15 A3014 RMK A01 T02050151  RH  071%=      5-min Rain = 0
KTAS 110731Z 16004KT 21/15 A3014 RMK A01 T02050152  RH  071%=      5-min Rain = 0
KTAS 110732Z 16004KT 21/15 A3014 RMK A01 T02050152  RH  072%=      5-min Rain = 0
KTAS 110733Z 16004KT 21/15 A3014 RMK A01 T02050153  RH  072%=      5-min Rain = 0
KTAS 110734Z 16004KT 21/15 A3014 RMK A01 T02060153  RH  071%=      5-min Rain = 0
KTAS 110735Z 16003KT 21/15 A3014 RMK A01 T02060152  RH  071%=      5-min Rain = 0
KTAS 110736Z 16004KT 21/15 A3014 RMK A01 T02060153  RH  071%=      5-min Rain = 0
KTAS 110737Z 16004KT 21/15 A3014 RMK A01 T02070153  RH  071%=      5-min Rain = 0
KTAS 110738Z 16003KT 21/15 A3014 RMK A01 T02060151  RH  071%=      5-min Rain = 0
KTAS 110739Z 16003KT 21/15 A3014 RMK A01 T02050151  RH  071%=      5-min Rain = 0
KTAS 110740Z 16003KT 21/15 A3014 RMK A01 T02050152  RH  071%=      5-min Rain = 0
KTAS 110741Z 16003KT 21/15 A3014 RMK A01 T02050152  RH  072%=      5-min Rain = 0
KTAS 110742Z 16004KT 21/15 A3014 RMK A01 T02050152  RH  072%=      5-min Rain = 0
KTAS 110743Z 16004KT 21/15 A3014 RMK A01 T02050152  RH  072%=      5-min Rain = 0
KTAS 110744Z 16004KT 21/15 A3014 RMK A01 T02050153  RH  072%=      5-min Rain = 0
KTAS 110745Z 16004KT 21/15 A3014 RMK A01 T02050153  RH  072%=      5-min Rain = 0
KTAS 110746Z 16004KT 21/15 A3014 RMK A01 T02050152  RH  072%=      5-min Rain = 0
KTAS 110747Z 16004KT 20/15 A3014 RMK A01 T02040152  RH  072%=      5-min Rain = 0
KTAS 110748Z 15004KT 20/15 A3014 RMK A01 T02030151  RH  072%=      5-min Rain = 0
KTAS 110749Z 15004KT 20/15 A3014 RMK A01 T02020150  RH  072%=      5-min Rain = 0
KTAS 110750Z 15004KT 20/15 A3014 RMK A01 T02010149  RH  072%=      5-min Rain = 0
KTAS 110751Z 15004KT 20/15 A3014 RMK A01 T02000149  RH  072%=      5-min Rain = 0
KTAS 110752Z 15004KT 20/15 A3014 RMK A01 T02000150  RH  073%=      5-min Rain = 0
KTAS 110753Z 15004KT 20/15 A3014 RMK A01 T02000150  RH  073%=      5-min Rain = 0
KTAS 110754Z 15004KT 20/15 A3014 RMK A01 T02000151  RH  073%=      5-min Rain = 0
KTAS 110755Z 15004KT 20/15 A3014 RMK A01 T02010151  RH  073%=      5-min Rain = 0
KTAS 110756Z 15004KT 20/15 A3014 RMK A01 T02010151  RH  073%=      5-min Rain = 0
KTAS 110757Z 15004KT 20/15 A3014 RMK A01 T02010151  RH  073%=      5-min Rain = 0
KTAS 110758Z 15004KT 20/15 A3014 RMK A01 T02010151  RH  073%=      5-min Rain = 0
KTAS 110759Z 15004KT 20/15 A3014 RMK A01 T02020152  RH  073%=      5-min Rain = 0
KTAS 110800Z 15005KT 20/15 A3014 RMK A01 T02020152  RH  073%=      5-min Rain = 0
KTAS 110801Z 15005KT 20/15 A3014 RMK A01 T02020151  RH  073%=      5-min Rain = 0
KTAS 110802Z 15005KT 20/15 A3014 RMK A01 T02020151  RH  072%=      5-min Rain = 0
KTAS 110803Z 15005KT 20/15 A3014 RMK A01 T02020151  RH  072%=      5-min Rain = 0
KTAS 110804Z 15005KT 20/15 A3014 RMK A01 T02030152  RH  072%=      5-min Rain = 0
KTAS 110805Z 15005KT 20/15 A3014 RMK A01 T02030152  RH  073%=      5-min Rain = 0
KTAS 110806Z 15005KT 20/15 A3014 RMK A01 T02030153  RH  073%=      5-min Rain = 0
KTAS 110807Z 15005KT 20/15 A3014 RMK A01 T02040153  RH  073%=      5-min Rain = 0
KTAS 110808Z 15005KT 20/15 A3014 RMK A01 T02040153  RH  073%=      5-min Rain = 0
KTAS 110809Z 14005KT 20/15 A3014 RMK A01 T02040154  RH  073%=      5-min Rain = 0
KTAS 110810Z 14005KT 21/16 A3014 RMK A01 T02050155  RH  073%=      5-min Rain = 0
KTAS 110811Z 14005KT 21/16 A3014 RMK A01 T02060155  RH  073%=      5-min Rain = 0
KTAS 110812Z 14005KT 21/16 A3014 RMK A01 T02060155  RH  073%=      5-min Rain = 0
KTAS 110813Z 14004KT 21/16 A3014 RMK A01 T02060155  RH  073%=      5-min Rain = 0
KTAS 110814Z 14004KT 21/16 A3014 RMK A01 T02060155  RH  073%=      5-min Rain = 0
KTAS 110815Z 14004KT 21/16 A3014 RMK A01 T02060155  RH  073%=      5-min Rain = 0
KTAS 110816Z 14004KT 21/16 A3014 RMK A01 T02060155  RH  073%=      5-min Rain = 0
KTAS 110817Z 14004KT 21/16 A3014 RMK A01 T02060155  RH  073%=      5-min Rain = 0
KTAS 110818Z 14004KT 21/16 A3014 RMK A01 T02060155  RH  073%=      5-min Rain = 0
KTAS 110819Z 14004KT 21/16 A3014 RMK A01 T02060155  RH  073%=      5-min Rain = 0
KTAS 110820Z 14003KT 21/15 A3014 RMK A01 T02050154  RH  072%=      5-min Rain = 0
KTAS 110821Z 14003KT 21/15 A3014 RMK A01 T02050154  RH  073%=      5-min Rain = 0
KTAS 110822Z 14003KT 21/15 A3014 RMK A01 T02050154  RH  073%=      5-min Rain = 0
KTAS 110823Z 14003KT 20/15 A3014 RMK A01 T02040154  RH  073%=      5-min Rain = 0
KTAS 110824Z 14003KT 20/15 A3014 RMK A01 T02040154  RH  073%=      5-min Rain = 0
KTAS 110825Z 14003KT 20/16 A3014 RMK A01 T02040155  RH  073%=      5-min Rain = 0
KTAS 110826Z 14003KT 20/16 A3014 RMK A01 T02040155  RH  073%=      5-min Rain = 0
KTAS 110827Z 15003KT 20/16 A3014 RMK A01 T02030155  RH  073%=      5-min Rain = 0
KTAS 110828Z 15003KT 20/16 A3014 RMK A01 T02030155  RH  074%=      5-min Rain = 0
KTAS 110829Z 15003KT 20/16 A3014 RMK A01 T02030155  RH  074%=      5-min Rain = 0
KTAS 110830Z 15003KT 20/15 A3014 RMK A01 T02030154  RH  074%=      5-min Rain = 0
KTAS 110831Z 15003KT 20/15 A3014 RMK A01 T02030154  RH  073%=      5-min Rain = 0
KTAS 110832Z 15003KT 20/15 A3014 RMK A01 T02030154  RH  073%=      5-min Rain = 0
KTAS 110833Z 15003KT 20/15 A3014 RMK A01 T02020154  RH  073%=      5-min Rain = 0
KTAS 110834Z 15002KT 20/15 A3014 RMK A01 T02020154  RH  074%=      5-min Rain = 0
KTAS 110835Z 16003KT 20/16 A3014 RMK A01 T02020155  RH  074%=      5-min Rain = 0
KTAS 110836Z 16003KT 20/16 A3014 RMK A01 T02030155  RH  074%=      5-min Rain = 0
KTAS 110837Z 16002KT 20/16 A3014 RMK A01 T02030155  RH  074%=      5-min Rain = 0
KTAS 110838Z 16002KT 20/16 A3014 RMK A01 T02030156  RH  074%=      5-min Rain = 0
KTAS 110839Z 16003KT 20/16 A3014 RMK A01 T02040157  RH  074%=      5-min Rain = 0
KTAS 110840Z 16002KT 20/16 A3014 RMK A01 T02040157  RH  074%=      5-min Rain = 0
KTAS 110841Z 16002KT 21/16 A3014 RMK A01 T02050156  RH  074%=      5-min Rain = 0
KTAS 110842Z 16002KT 20/16 A3014 RMK A01 T02040156  RH  074%=      5-min Rain = 0
KTAS 110843Z 16002KT 20/16 A3014 RMK A01 T02040156  RH  074%=      5-min Rain = 0
KTAS 110844Z 16002KT 21/16 A3014 RMK A01 T02050157  RH  074%=      5-min Rain = 0
KTAS 110845Z 15002KT 21/16 A3014 RMK A01 T02050157  RH  074%=      5-min Rain = 0
KTAS 110846Z 15002KT 21/16 A3014 RMK A01 T02050157  RH  074%=      5-min Rain = 0
KTAS 110847Z 15002KT 21/16 A3014 RMK A01 T02050157  RH  074%=      5-min Rain = 0
KTAS 110848Z 15002KT 20/16 A3014 RMK A01 T02040157  RH  074%=      5-min Rain = 0
KTAS 110849Z 15002KT 20/16 A3014 RMK A01 T02040157  RH  074%=      5-min Rain = 0
KTAS 110850Z 14002KT 20/16 A3014 RMK A01 T02040158  RH  074%=      5-min Rain = 0
KTAS 110851Z 15002KT 20/16 A3014 RMK A01 T02040157  RH  074%=      5-min Rain = 0
KTAS 110852Z 15002KT 20/16 A3014 RMK A01 T02040158  RH  074%=      5-min Rain = 0
KTAS 110853Z 15002KT 20/16 A3014 RMK A01 T02040157  RH  074%=      5-min Rain = 0
KTAS 110854Z 15002KT 20/16 A3014 RMK A01 T02040157  RH  074%=      5-min Rain = 0
KTAS 110855Z 15002KT 20/16 A3014 RMK A01 T02040157  RH  074%=      5-min Rain = 0
KTAS 110856Z 15002KT 20/16 A3014 RMK A01 T02040157  RH  075%=      5-min Rain = 0
KTAS 110857Z 15002KT 20/16 A3014 RMK A01 T02040158  RH  075%=      5-min Rain = 0
KTAS 110858Z 15002KT 20/16 A3014 RMK A01 T02040158  RH  075%=      5-min Rain = 0
KTAS 110859Z 15002KT 20/16 A3014 RMK A01 T02040158  RH  075%=      5-min Rain = 0
KTAS 110900Z 15002KT 20/16 A3014 RMK A01 T02030158  RH  075%=      5-min Rain = 0
KTAS 110901Z 15002KT 20/16 A3014 RMK A01 T02030158  RH  075%=      5-min Rain = 0
KTAS 110902Z 14002KT 20/16 A3014 RMK A01 T02030159  RH  076%=      5-min Rain = 0
KTAS 110903Z 14002KT 20/16 A3014 RMK A01 T02030159  RH  076%=      5-min Rain = 0
KTAS 110904Z 14002KT 20/16 A3014 RMK A01 T02030159  RH  076%=      5-min Rain = 0
KTAS 110905Z 13002KT 20/16 A3014 RMK A01 T02030159  RH  076%=      5-min Rain = 0
KTAS 110906Z 13002KT 20/16 A3014 RMK A01 T02030159  RH  076%=      5-min Rain = 0
KTAS 110907Z 13002KT 20/16 A3013 RMK A01 T02030159  RH  076%=      5-min Rain = 0
KTAS 110908Z 13002KT 20/16 A3013 RMK A01 T02030159  RH  076%=      5-min Rain = 0
KTAS 110909Z 14002KT 20/16 A3013 RMK A01 T02030159  RH  076%=      5-min Rain = 0
KTAS 110910Z 13002KT 20/16 A3013 RMK A01 T02020158  RH  076%=      5-min Rain = 0
KTAS 110911Z 14002KT 20/16 A3013 RMK A01 T02020157  RH  076%=      5-min Rain = 0
KTAS 110912Z 14002KT 20/16 A3013 RMK A01 T02010158  RH  076%=      5-min Rain = 0
KTAS 110913Z 15002KT 20/16 A3013 RMK A01 T02020159  RH  076%=      5-min Rain = 0
KTAS 110914Z 17002KT 20/16 A3013 RMK A01 T02020159  RH  076%=      5-min Rain = 0
KTAS 110915Z 15002KT 20/16 A3013 RMK A01 T02020158  RH  076%=      5-min Rain = 0
KTAS 110916Z 16003KT 20/16 A3013 RMK A01 T02010155  RH  075%=      5-min Rain = 0
KTAS 110917Z 19002KT 20/15 A3013 RMK A01 T01980151  RH  074%=      5-min Rain = 0
KTAS 110918Z 17003KT 20/15 A3013 RMK A01 T02000154  RH  075%=      5-min Rain = 0
KTAS 110919Z 17002KT 20/16 A3013 RMK A01 T02010156  RH  075%=      5-min Rain = 0
KTAS 110920Z 17002KT 20/16 A3013 RMK A01 T02030157  RH  075%=      5-min Rain = 0
KTAS 110921Z 18003KT 20/16 A3013 RMK A01 T02030155  RH  074%=      5-min Rain = 0
KTAS 110922Z 19003KT 20/15 A3013 RMK A01 T02020153  RH  074%=      5-min Rain = 0
KTAS 110923Z 20003KT 20/15 A3013 RMK A01 T02030154  RH  073%=      5-min Rain = 0
KTAS 110924Z 18003KT 20/15 A3013 RMK A01 T02030153  RH  073%=      5-min Rain = 0
KTAS 110925Z 19004KT 20/15 A3013 RMK A01 T02030151  RH  072%=      5-min Rain = 0
KTAS 110926Z 20004KT 20/15 A3013 RMK A01 T02040148  RH  070%=      5-min Rain = 0
KTAS 110927Z 19005KT 21/15 A3013 RMK A01 T02060147  RH  069%=      5-min Rain = 0
KTAS 110928Z 19004KT 21/15 A3013 RMK A01 T02080147  RH  068%=      5-min Rain = 0
KTAS 110929Z 19004KT 21/15 A3013 RMK A01 T02090147  RH  067%=      5-min Rain = 0
KTAS 110930Z 19004KT 21/15 A3013 RMK A01 T02100147  RH  067%=      5-min Rain = 0
KTAS 110931Z 19005KT 21/15 A3013 RMK A01 T02090146  RH  067%=      5-min Rain = 0
KTAS 110932Z 19005KT 21/15 A3013 RMK A01 T02090146  RH  067%=      5-min Rain = 0
KTAS 110933Z 18004KT 21/15 A3013 RMK A01 T02080146  RH  068%=      5-min Rain = 0
KTAS 110934Z 18004KT 21/15 A3013 RMK A01 T02070147  RH  068%=      5-min Rain = 0
KTAS 110935Z 17004KT 21/15 A3013 RMK A01 T02060147  RH  069%=      5-min Rain = 0
KTAS 110936Z 17004KT 21/15 A3013 RMK A01 T02050148  RH  070%=      5-min Rain = 0
KTAS 110937Z 17004KT 20/15 A3013 RMK A01 T02040148  RH  070%=      5-min Rain = 0
KTAS 110938Z 17004KT 20/15 A3013 RMK A01 T02030147  RH  070%=      5-min Rain = 0
KTAS 110939Z 16004KT 20/15 A3013 RMK A01 T02030147  RH  070%=      5-min Rain = 0
KTAS 110940Z 15004KT 20/15 A3013 RMK A01 T02010146  RH  071%=      5-min Rain = 0
KTAS 110941Z 13004KT 20/15 A3013 RMK A01 T01990145  RH  071%=      5-min Rain = 0
KTAS 110942Z 13004KT 20/15 A3013 RMK A01 T01970145  RH  072%=      5-min Rain = 0
KTAS 110943Z 13004KT 20/15 A3013 RMK A01 T01960145  RH  072%=      5-min Rain = 0
KTAS 110944Z 13004KT 20/15 A3013 RMK A01 T01960145  RH  072%=      5-min Rain = 0
KTAS 110945Z 13004KT 20/14 A3013 RMK A01 T01950144  RH  072%=      5-min Rain = 0
KTAS 110946Z 13004KT 20/14 A3013 RMK A01 T01950144  RH  072%=      5-min Rain = 0
KTAS 110947Z 14004KT 20/14 A3013 RMK A01 T01950144  RH  073%=      5-min Rain = 0
KTAS 110948Z 14004KT 20/14 A3013 RMK A01 T01950144  RH  073%=      5-min Rain = 0
KTAS 110949Z 15004KT 20/15 A3013 RMK A01 T01950145  RH  073%=      5-min Rain = 0
KTAS 110950Z 15004KT 20/15 A3013 RMK A01 T01950145  RH  073%=      5-min Rain = 0
KTAS 110951Z 14004KT 20/15 A3013 RMK A01 T01960145  RH  072%=      5-min Rain = 0
KTAS 110952Z 13004KT 20/15 A3013 RMK A01 T01970145  RH  072%=      5-min Rain = 0
KTAS 110953Z 13005KT 20/15 A3013 RMK A01 T01970145  RH  072%=      5-min Rain = 0
KTAS 110954Z 13005KT 20/15 A3013 RMK A01 T01980145  RH  071%=      5-min Rain = 0
KTAS 110955Z 14005KT 20/15 A3013 RMK A01 T01990145  RH  071%=      5-min Rain = 0
KTAS 110956Z 14005KT 20/15 A3013 RMK A01 T01990145  RH  071%=      5-min Rain = 0
KTAS 110957Z 13005KT 20/15 A3013 RMK A01 T01990145  RH  071%=      5-min Rain = 0
KTAS 110958Z 13004KT 20/15 A3013 RMK A01 T01990145  RH  071%=      5-min Rain = 0
KTAS 110959Z 13004KT 20/15 A3013 RMK A01 T01990145  RH  071%=      5-min Rain = 0
KTAS 111000Z 14004KT 20/15 A3013 RMK A01 T01990145  RH  071%=      5-min Rain = 0
KTAS 111001Z 13004KT 20/15 A3013 RMK A01 T01990145  RH  071%=      5-min Rain = 0
KTAS 111002Z 13004KT 20/15 A3013 RMK A01 T02000145  RH  071%=      5-min Rain = 0
KTAS 111003Z 14004KT 20/15 A3013 RMK A01 T02000145  RH  071%=      5-min Rain = 0
KTAS 111004Z 13004KT 20/15 A3013 RMK A01 T02000145  RH  070%=      5-min Rain = 0
KTAS 111005Z 13004KT 20/15 A3013 RMK A01 T02000145  RH  070%=      5-min Rain = 0
KTAS 111006Z 13005KT 20/15 A3013 RMK A01 T02010145  RH  070%=      5-min Rain = 0
KTAS 111007Z 13004KT 20/14 A3013 RMK A01 T02010144  RH  070%=      5-min Rain = 0
KTAS 111008Z 12005KT 20/14 A3013 RMK A01 T02020144  RH  070%=      5-min Rain = 0
KTAS 111009Z 12005KT 20/14 A3013 RMK A01 T02020144  RH  070%=      5-min Rain = 0
KTAS 111010Z 12005KT 20/14 A3013 RMK A01 T02010144  RH  070%=      5-min Rain = 0
KTAS 111011Z 12005KT 20/14 A3013 RMK A01 T02010144  RH  070%=      5-min Rain = 0
KTAS 111012Z 12005KT 20/14 A3013 RMK A01 T02010144  RH  070%=      5-min Rain = 0
KTAS 111013Z 13005KT 20/14 A3013 RMK A01 T02000144  RH  070%=      5-min Rain = 0
KTAS 111014Z 13005KT 20/14 A3013 RMK A01 T02000144  RH  070%=      5-min Rain = 0
KTAS 111015Z 13005KT 20/14 A3013 RMK A01 T02000144  RH  070%=      5-min Rain = 0
KTAS 111016Z 13006KT 20/14 A3013 RMK A01 T01990144  RH  070%=      5-min Rain = 0
KTAS 111017Z 13005KT 20/15 A3013 RMK A01 T01990145  RH  071%=      5-min Rain = 0
KTAS 111018Z 13006KT 20/14 A3013 RMK A01 T01990144  RH  071%=      5-min Rain = 0
KTAS 111019Z 13006KT 20/14 A3013 RMK A01 T01990144  RH  071%=      5-min Rain = 0
KTAS 111020Z 13006KT 20/14 A3013 RMK A01 T01990144  RH  071%=      5-min Rain = 0
KTAS 111021Z 13006KT 20/14 A3013 RMK A01 T01990144  RH  071%=      5-min Rain = 0
KTAS 111022Z 13006KT 20/14 A3013 RMK A01 T01990144  RH  070%=      5-min Rain = 0
KTAS 111023Z 13006KT 20/14 A3013 RMK A01 T01990144  RH  070%=      5-min Rain = 0
KTAS 111024Z 13006KT 20/14 A3013 RMK A01 T01990144  RH  071%=      5-min Rain = 0
KTAS 111025Z 14006KT 20/14 A3013 RMK A01 T01990144  RH  071%=      5-min Rain = 0
KTAS 111026Z 14006KT 20/14 A3013 RMK A01 T01990144  RH  071%=      5-min Rain = 0
KTAS 111027Z 14006KT 20/14 A3013 RMK A01 T01990144  RH  071%=      5-min Rain = 0
KTAS 111028Z 14006KT 20/14 A3014 RMK A01 T01980144  RH  071%=      5-min Rain = 0
KTAS 111029Z 14006KT 20/14 A3014 RMK A01 T01980144  RH  071%=      5-min Rain = 0
KTAS 111030Z 15006KT 20/14 A3014 RMK A01 T01990143  RH  070%=      5-min Rain = 0
KTAS 111031Z 15006KT 20/14 A3014 RMK A01 T01990143  RH  070%=      5-min Rain = 0
KTAS 111032Z 15006KT 20/14 A3014 RMK A01 T01990143  RH  070%=      5-min Rain = 0
KTAS 111033Z 15006KT 20/14 A3014 RMK A01 T01990143  RH  070%=      5-min Rain = 0
KTAS 111034Z 15007KT 20/14 A3014 RMK A01 T02000142  RH  069%=      5-min Rain = 0
KTAS 111035Z 16006KT 20/14 A3014 RMK A01 T02010142  RH  069%=      5-min Rain = 0
KTAS 111036Z 16006KT 20/14 A3014 RMK A01 T02010141  RH  068%=      5-min Rain = 0
KTAS 111037Z 16007KT 20/14 A3013 RMK A01 T02010141  RH  068%=      5-min Rain = 0
KTAS 111038Z 16007KT 20/14 A3013 RMK A01 T02010141  RH  068%=      5-min Rain = 0
KTAS 111039Z 16007KT 20/14 A3013 RMK A01 T02020141  RH  068%=      5-min Rain = 0
KTAS 111040Z 16006KT 20/14 A3013 RMK A01 T02020140  RH  068%=      5-min Rain = 0
KTAS 111041Z 16006KT 20/14 A3013 RMK A01 T02020140  RH  067%=      5-min Rain = 0
KTAS 111042Z 16007KT 20/14 A3013 RMK A01 T02030139  RH  067%=      5-min Rain = 0
KTAS 111043Z 16006KT 20/14 A3013 RMK A01 T02030139  RH  067%=      5-min Rain = 0
KTAS 111044Z 16006KT 20/14 A3013 RMK A01 T02030139  RH  067%=      5-min Rain = 0
KTAS 111045Z 16006KT 20/14 A3013 RMK A01 T02030139  RH  067%=      5-min Rain = 0
KTAS 111046Z 16007KT 20/14 A3013 RMK A01 T02030139  RH  067%=      5-min Rain = 0
KTAS 111047Z 16006KT 20/14 A3013 RMK A01 T02030139  RH  066%=      5-min Rain = 0
KTAS 111048Z 16006KT 20/14 A3013 RMK A01 T02030139  RH  066%=      5-min Rain = 0
KTAS 111049Z 16006KT 20/14 A3013 RMK A01 T02030139  RH  066%=      5-min Rain = 0
KTAS 111050Z 16006KT 20/14 A3014 RMK A01 T02030138  RH  066%=      5-min Rain = 0
KTAS 111051Z 16006KT 20/14 A3014 RMK A01 T02030138  RH  066%=      5-min Rain = 0
KTAS 111052Z 16006KT 20/14 A3014 RMK A01 T02030138  RH  066%=      5-min Rain = 0
KTAS 111053Z 16006KT 20/14 A3014 RMK A01 T02030138  RH  066%=      5-min Rain = 0
KTAS 111054Z 16006KT 20/14 A3014 RMK A01 T02040138  RH  066%=      5-min Rain = 0
KTAS 111055Z 16006KT 20/14 A3014 RMK A01 T02040138  RH  066%=      5-min Rain = 0
KTAS 111056Z 16006KT 20/14 A3014 RMK A01 T02040138  RH  066%=      5-min Rain = 0
KTAS 111057Z 16006KT 20/14 A3014 RMK A01 T02040138  RH  066%=      5-min Rain = 0
KTAS 111058Z 16006KT 20/14 A3014 RMK A01 T02030138  RH  066%=      5-min Rain = 0
KTAS 111059Z 16006KT 20/14 A3014 RMK A01 T02030138  RH  066%=      5-min Rain = 0
KTAS 111100Z 16006KT 20/14 A3014 RMK A01 T02030138  RH  066%=      5-min Rain = 0
KTAS 111101Z 16006KT 20/14 A3014 RMK A01 T02040138  RH  066%=      5-min Rain = 0
KTAS 111102Z 16006KT 20/14 A3014 RMK A01 T02040138  RH  066%=      5-min Rain = 0
KTAS 111103Z 16007KT 20/14 A3014 RMK A01 T02040137  RH  066%=      5-min Rain = 0
KTAS 111104Z 16006KT 20/14 A3014 RMK A01 T02040137  RH  065%=      5-min Rain = 0
KTAS 111105Z 16007KT 20/14 A3014 RMK A01 T02040137  RH  065%=      5-min Rain = 0
KTAS 111106Z 16007KT 20/14 A3014 RMK A01 T02040136  RH  065%=      5-min Rain = 0
KTAS 111107Z 16006KT 20/14 A3014 RMK A01 T02040136  RH  065%=      5-min Rain = 0
KTAS 111108Z 16006KT 20/14 A3014 RMK A01 T02040136  RH  065%=      5-min Rain = 0
KTAS 111109Z 16006KT 20/14 A3014 RMK A01 T02040136  RH  065%=      5-min Rain = 0
KTAS 111110Z 16006KT 20/14 A3014 RMK A01 T02040136  RH  065%=      5-min Rain = 0
KTAS 111111Z 16006KT 20/14 A3014 RMK A01 T02040135  RH  065%=      5-min Rain = 0
KTAS 111112Z 16006KT 20/14 A3014 RMK A01 T02040135  RH  065%=      5-min Rain = 0
KTAS 111113Z 16006KT 20/14 A3014 RMK A01 T02030135  RH  065%=      5-min Rain = 0
KTAS 111114Z 16006KT 20/14 A3014 RMK A01 T02030135  RH  065%=      5-min Rain = 0
KTAS 111115Z 16006KT 20/14 A3014 RMK A01 T02030135  RH  065%=      5-min Rain = 0
KTAS 111116Z 16006KT 20/14 A3014 RMK A01 T02030135  RH  065%=      5-min Rain = 0
KTAS 111117Z 16007KT 20/14 A3014 RMK A01 T02030135  RH  065%=      5-min Rain = 0
KTAS 111118Z 16007KT 20/14 A3014 RMK A01 T02030135  RH  065%=      5-min Rain = 0
KTAS 111119Z 17007KT 20/14 A3014 RMK A01 T02040135  RH  065%=      5-min Rain = 0
KTAS 111120Z 17006KT 20/14 A3014 RMK A01 T02040135  RH  065%=      5-min Rain = 0
KTAS 111121Z 17007KT 20/14 A3014 RMK A01 T02040136  RH  065%=      5-min Rain = 0
KTAS 111122Z 17007KT 20/14 A3014 RMK A01 T02040136  RH  065%=      5-min Rain = 0
KTAS 111123Z 17007KT 20/14 A3014 RMK A01 T02040136  RH  065%=      5-min Rain = 0
KTAS 111124Z 17007KT 20/14 A3014 RMK A01 T02040136  RH  065%=      5-min Rain = 0
KTAS 111125Z 17007KT 20/14 A3014 RMK A01 T02040136  RH  065%=      5-min Rain = 0
KTAS 111126Z 17006KT 20/14 A3014 RMK A01 T02040136  RH  065%=      5-min Rain = 0
KTAS 111127Z 17006KT 20/14 A3014 RMK A01 T02030136  RH  065%=      5-min Rain = 0
KTAS 111128Z 17006KT 20/14 A3014 RMK A01 T02030136  RH  065%=      5-min Rain = 0
KTAS 111129Z 17006KT 20/14 A3014 RMK A01 T02020136  RH  066%=      5-min Rain = 0
KTAS 111130Z 17006KT 20/14 A3014 RMK A01 T02020136  RH  066%=      5-min Rain = 0
KTAS 111131Z 17006KT 20/14 A3014 RMK A01 T02010136  RH  066%=      5-min Rain = 0
KTAS 111132Z 17006KT 20/14 A3014 RMK A01 T02010136  RH  066%=      5-min Rain = 0
KTAS 111133Z 18005KT 20/14 A3014 RMK A01 T02010136  RH  066%=      5-min Rain = 0
KTAS 111134Z 17006KT 20/14 A3014 RMK A01 T02000136  RH  067%=      5-min Rain = 0
KTAS 111135Z 17006KT 20/14 A3014 RMK A01 T02000136  RH  067%=      5-min Rain = 0
KTAS 111136Z 17006KT 20/14 A3014 RMK A01 T01990136  RH  067%=      5-min Rain = 0
KTAS 111137Z 17005KT 20/14 A3014 RMK A01 T01990136  RH  067%=      5-min Rain = 0
KTAS 111138Z 17005KT 20/14 A3014 RMK A01 T01990136  RH  067%=      5-min Rain = 0
KTAS 111139Z 18005KT 20/14 A3014 RMK A01 T01980136  RH  067%=      5-min Rain = 0
KTAS 111140Z 18005KT 20/14 A3014 RMK A01 T01980136  RH  067%=      5-min Rain = 0
KTAS 111141Z 18005KT 20/14 A3014 RMK A01 T01970136  RH  068%=      5-min Rain = 0
KTAS 111142Z 18005KT 20/14 A3014 RMK A01 T01970136  RH  068%=      5-min Rain = 0
KTAS 111143Z 18005KT 20/14 A3014 RMK A01 T01970136  RH  068%=      5-min Rain = 0
KTAS 111144Z 18005KT 20/14 A3014 RMK A01 T01970136  RH  068%=      5-min Rain = 0
KTAS 111145Z 18005KT 20/14 A3014 RMK A01 T01960136  RH  068%=      5-min Rain = 0
KTAS 111146Z 18005KT 20/14 A3014 RMK A01 T01960136  RH  068%=      5-min Rain = 0
KTAS 111147Z 18005KT 20/14 A3014 RMK A01 T01960136  RH  068%=      5-min Rain = 0
KTAS 111148Z 18005KT 20/14 A3014 RMK A01 T01950136  RH  069%=      5-min Rain = 0
KTAS 111149Z 18005KT 20/14 A3014 RMK A01 T01950136  RH  069%=      5-min Rain = 0
KTAS 111150Z 18005KT 20/14 A3014 RMK A01 T01950136  RH  069%=      5-min Rain = 0
KTAS 111151Z 18005KT 20/14 A3015 RMK A01 T01950136  RH  069%=      5-min Rain = 0
KTAS 111152Z 18005KT 20/14 A3015 RMK A01 T01950137  RH  069%=      5-min Rain = 0
KTAS 111153Z 18005KT 19/14 A3015 RMK A01 T01940137  RH  069%=      5-min Rain = 0
KTAS 111154Z 18005KT 19/14 A3015 RMK A01 T01940137  RH  069%=      5-min Rain = 0
KTAS 111155Z 18005KT 19/14 A3015 RMK A01 T01940137  RH  069%=      5-min Rain = 0
KTAS 111156Z 18005KT 19/14 A3015 RMK A01 T01940137  RH  069%=      5-min Rain = 0
KTAS 111157Z 18005KT 19/14 A3015 RMK A01 T01940137  RH  070%=      5-min Rain = 0
KTAS 111158Z 18005KT 19/14 A3015 RMK A01 T01940137  RH  070%=      5-min Rain = 0
KTAS 111159Z 18005KT 19/14 A3015 RMK A01 T01940137  RH  070%=      5-min Rain = 0
KTAS 111200Z 18005KT 19/14 A3015 RMK A01 T01940138  RH  070%=      5-min Rain = 0
KTAS 111201Z 18005KT 19/14 A3015 RMK A01 T01940138  RH  070%=      5-min Rain = 0
KTAS 111202Z 18005KT 19/14 A3015 RMK A01 T01940138  RH  070%=      5-min Rain = 0
KTAS 111203Z 18005KT 19/14 A3015 RMK A01 T01940138  RH  070%=      5-min Rain = 0
KTAS 111204Z 18006KT 19/14 A3015 RMK A01 T01940138  RH  070%=      5-min Rain = 0
KTAS 111205Z 18006KT 19/14 A3015 RMK A01 T01940139  RH  070%=      5-min Rain = 0
KTAS 111206Z 18005KT 19/14 A3015 RMK A01 T01940139  RH  070%=      5-min Rain = 0
KTAS 111207Z 18005KT 20/14 A3015 RMK A01 T01950139  RH  070%=      5-min Rain = 0
KTAS 111208Z 18005KT 20/14 A3015 RMK A01 T01950139  RH  070%=      5-min Rain = 0
KTAS 111209Z 18006KT 20/14 A3015 RMK A01 T01950140  RH  070%=      5-min Rain = 0
KTAS 111210Z 19006KT 20/14 A3015 RMK A01 T01960140  RH  070%=      5-min Rain = 0
KTAS 111211Z 18005KT 20/14 A3015 RMK A01 T01960140  RH  070%=      5-min Rain = 0
KTAS 111212Z 18005KT 20/14 A3015 RMK A01 T01960141  RH  070%=      5-min Rain = 0
KTAS 111213Z 18005KT 20/14 A3015 RMK A01 T01970141  RH  070%=      5-min Rain = 0
KTAS 111214Z 18005KT 20/14 A3015 RMK A01 T01970141  RH  070%=      5-min Rain = 0
KTAS 111215Z 18005KT 20/14 A3015 RMK A01 T01970142  RH  070%=      5-min Rain = 0
KTAS 111216Z 18005KT 20/14 A3015 RMK A01 T01980142  RH  070%=      5-min Rain = 0
KTAS 111217Z 18005KT 20/14 A3015 RMK A01 T01990142  RH  070%=      5-min Rain = 0
KTAS 111218Z 18005KT 20/14 A3015 RMK A01 T01990143  RH  070%=      5-min Rain = 0
KTAS 111219Z 18005KT 20/14 A3015 RMK A01 T02000143  RH  070%=      5-min Rain = 0
KTAS 111220Z 18005KT 20/14 A3015 RMK A01 T02000143  RH  070%=      5-min Rain = 0
KTAS 111221Z 18005KT 20/14 A3015 RMK A01 T02000143  RH  070%=      5-min Rain = 0
KTAS 111222Z 18005KT 20/14 A3015 RMK A01 T02010144  RH  070%=      5-min Rain = 0
KTAS 111223Z 18005KT 20/14 A3015 RMK A01 T02010144  RH  070%=      5-min Rain = 0
KTAS 111224Z 18006KT 20/14 A3015 RMK A01 T02010144  RH  070%=      5-min Rain = 0
KTAS 111225Z 19005KT 20/14 A3015 RMK A01 T02020144  RH  070%=      5-min Rain = 0
KTAS 111226Z 19005KT 20/15 A3015 RMK A01 T02020145  RH  069%=      5-min Rain = 0
KTAS 111227Z 19005KT 20/15 A3015 RMK A01 T02020145  RH  069%=      5-min Rain = 0
KTAS 111228Z 19005KT 20/15 A3015 RMK A01 T02030145  RH  069%=      5-min Rain = 0
KTAS 111229Z 19005KT 20/15 A3015 RMK A01 T02030145  RH  069%=      5-min Rain = 0
KTAS 111230Z 19005KT 20/15 A3015 RMK A01 T02040146  RH  069%=      5-min Rain = 0
KTAS 111231Z 19005KT 20/15 A3015 RMK A01 T02040146  RH  069%=      5-min Rain = 0
KTAS 111232Z 19005KT 21/15 A3015 RMK A01 T02050146  RH  069%=      5-min Rain = 0
KTAS 111233Z 19005KT 21/15 A3015 RMK A01 T02060146  RH  069%=      5-min Rain = 0
KTAS 111234Z 19005KT 21/15 A3015 RMK A01 T02060147  RH  069%=      5-min Rain = 0
KTAS 111235Z 20005KT 21/15 A3015 RMK A01 T02070147  RH  068%=      5-min Rain = 0
KTAS 111236Z 20005KT 21/15 A3015 RMK A01 T02080147  RH  068%=      5-min Rain = 0
KTAS 111237Z 20005KT 21/15 A3015 RMK A01 T02090148  RH  068%=      5-min Rain = 0
KTAS 111238Z 20005KT 21/15 A3015 RMK A01 T02100148  RH  068%=      5-min Rain = 0
KTAS 111239Z 20005KT 21/15 A3015 RMK A01 T02110148  RH  067%=      5-min Rain = 0
KTAS 111240Z 20004KT 21/15 A3015 RMK A01 T02130148  RH  067%=      5-min Rain = 0
KTAS 111241Z 20004KT 21/15 A3015 RMK A01 T02140149  RH  066%=      5-min Rain = 0
KTAS 111242Z 20005KT 22/15 A3015 RMK A01 T02160149  RH  066%=      5-min Rain = 0
KTAS 111243Z 20004KT 22/15 A3015 RMK A01 T02170150  RH  065%=      5-min Rain = 0
KTAS 111244Z 20005KT 22/15 A3015 RMK A01 T02190150  RH  065%=      5-min Rain = 0
KTAS 111245Z 20005KT 22/15 A3015 RMK A01 T02200150  RH  064%=      5-min Rain = 0
KTAS 111246Z 20005KT 22/15 A3015 RMK A01 T02210150  RH  064%=      5-min Rain = 0
KTAS 111247Z 19005KT 22/15 A3015 RMK A01 T02220151  RH  064%=      5-min Rain = 0
KTAS 111248Z 20005KT 22/15 A3015 RMK A01 T02230151  RH  064%=      5-min Rain = 0
KTAS 111249Z 19005KT 23/15 A3015 RMK A01 T02250152  RH  063%=      5-min Rain = 0
KTAS 111250Z 19005KT 23/15 A3015 RMK A01 T02260152  RH  063%=      5-min Rain = 0
KTAS 111251Z 18006KT 23/15 A3015 RMK A01 T02270153  RH  063%=      5-min Rain = 0
KTAS 111252Z 19008KT 23/15 A3015 RMK A01 T02280152  RH  062%=      5-min Rain = 0
KTAS 111253Z 19007KT 23/15 A3015 RMK A01 T02290152  RH  062%=      5-min Rain = 0
KTAS 111254Z 19007KT 23/15 A3015 RMK A01 T02300152  RH  062%=      5-min Rain = 0
KTAS 111255Z 19006KT 23/15 A3015 RMK A01 T02300153  RH  062%=      5-min Rain = 0
KTAS 111256Z 19007KT 23/15 A3015 RMK A01 T02320153  RH  061%=      5-min Rain = 0
KTAS 111257Z 19007KT 23/15 A3015 RMK A01 T02320153  RH  061%=      5-min Rain = 0
KTAS 111258Z 19007KT 23/15 A3015 RMK A01 T02330153  RH  061%=      5-min Rain = 0
KTAS 111259Z 19006KT 23/15 A3015 RMK A01 T02340153  RH  060%=      5-min Rain = 0
KTAS 111300Z 19009KT 24/15 A3015 RMK A01 T02350154  RH  060%=      5-min Rain = 0
KTAS 111301Z 19008KT 24/15 A3015 RMK A01 T02360153  RH  060%=      5-min Rain = 0
KTAS 111302Z 19008KT 24/15 A3015 RMK A01 T02360154  RH  060%=      5-min Rain = 0
KTAS 111303Z 19010KT 24/15 A3015 RMK A01 T02360154  RH  060%=      5-min Rain = 0
KTAS 111304Z 19009KT 24/15 A3015 RMK A01 T02360154  RH  060%=      5-min Rain = 0
KTAS 111305Z 19009KT 24/15 A3015 RMK A01 T02370154  RH  060%=      5-min Rain = 0
KTAS 111306Z 19009KT 24/16 A3015 RMK A01 T02370155  RH  060%=      5-min Rain = 0
KTAS 111307Z 19009KT 24/16 A3015 RMK A01 T02380155  RH  060%=      5-min Rain = 0
KTAS 111308Z 19010KT 24/16 A3015 RMK A01 T02390155  RH  059%=      5-min Rain = 0
KTAS 111309Z 19009KT 24/16 A3015 RMK A01 T02400155  RH  059%=      5-min Rain = 0
KTAS 111310Z 18009KT 24/16 A3015 RMK A01 T02400155  RH  059%=      5-min Rain = 0
KTAS 111311Z 19010KT 24/16 A3015 RMK A01 T02400156  RH  059%=      5-min Rain = 0
KTAS 111312Z 19011KT 24/16 A3015 RMK A01 T02410156  RH  059%=      5-min Rain = 0
KTAS 111313Z 19012KT 24/16 A3015 RMK A01 T02400156  RH  059%=      5-min Rain = 0
KTAS 111314Z 19012KT 24/16 A3015 RMK A01 T02400156  RH  059%=      5-min Rain = 0
KTAS 111315Z 19010KT 24/16 A3015 RMK A01 T02400156  RH  060%=      5-min Rain = 0
KTAS 111316Z 18012KT 24/16 A3015 RMK A01 T02400156  RH  059%=      5-min Rain = 0
KTAS 111317Z 19012KT 24/16 A3015 RMK A01 T02390156  RH  060%=      5-min Rain = 0
KTAS 111318Z 19010KT 24/16 A3015 RMK A01 T02390156  RH  060%=      5-min Rain = 0
KTAS 111319Z 19011KT 24/16 A3015 RMK A01 T02380156  RH  060%=      5-min Rain = 0
KTAS 111320Z 18012KT 24/16 A3015 RMK A01 T02390157  RH  060%=      5-min Rain = 0
KTAS 111321Z 19010KT 24/16 A3015 RMK A01 T02400157  RH  060%=      5-min Rain = 0
KTAS 111322Z 18012KT 24/16 A3015 RMK A01 T02410157  RH  059%=      5-min Rain = 0
KTAS 111323Z 19010KT 24/16 A3015 RMK A01 T02410158  RH  060%=      5-min Rain = 0
KTAS 111324Z 19010KT 24/16 A3015 RMK A01 T02420158  RH  059%=      5-min Rain = 0
KTAS 111325Z 20011G17KT 24/16 A3015 RMK A01 T02430158  RH  059%=      5-min Rain = 0
KTAS 111326Z 19012KT 24/16 A3015 RMK A01 T02430158  RH  059%=      5-min Rain = 0
KTAS 111327Z 20012KT 24/16 A3015 RMK A01 T02430158  RH  059%=      5-min Rain = 0
KTAS 111328Z 19011KT 24/16 A3015 RMK A01 T02420158  RH  059%=      5-min Rain = 0
KTAS 111329Z 18012KT 24/16 A3015 RMK A01 T02420159  RH  060%=      5-min Rain = 0
KTAS 111330Z 18013KT 24/16 A3015 RMK A01 T02430159  RH  060%=      5-min Rain = 0
KTAS 111331Z 19012KT 24/16 A3015 RMK A01 T02440160  RH  059%=      5-min Rain = 0
KTAS 111332Z 19008G13KT 25/16 A3015 RMK A01 T02460161  RH  059%=      5-min Rain = 0
KTAS 111333Z 18010G15KT 25/16 A3015 RMK A01 T02480161  RH  059%=      5-min Rain = 0
KTAS 111334Z 19015KT 25/16 A3015 RMK A01 T02480161  RH  058%=      5-min Rain = 0
KTAS 111335Z 19011KT 25/16 A3016 RMK A01 T02460161  RH  059%=      5-min Rain = 0
KTAS 111336Z 19014KT 25/16 A3016 RMK A01 T02470161  RH  059%=      5-min Rain = 0
KTAS 111337Z 20012KT 25/16 A3016 RMK A01 T02470161  RH  059%=      5-min Rain = 0
KTAS 111338Z 18013KT 25/16 A3016 RMK A01 T02470162  RH  059%=      5-min Rain = 0
KTAS 111339Z 18014G19KT 25/16 A3016 RMK A01 T02470162  RH  059%=      5-min Rain = 0
KTAS 111340Z 19013KT 25/16 A3016 RMK A01 T02480163  RH  059%=      5-min Rain = 0
KTAS 111341Z 18013KT 25/16 A3016 RMK A01 T02490162  RH  058%=      5-min Rain = 0
KTAS 111342Z 18013KT 25/16 A3016 RMK A01 T02500163  RH  059%=      5-min Rain = 0
KTAS 111343Z 19011KT 25/16 A3016 RMK A01 T02510163  RH  058%=      5-min Rain = 0
KTAS 111344Z 19012KT 25/16 A3016 RMK A01 T02520164  RH  058%=      5-min Rain = 0
KTAS 111345Z 19013KT 25/16 A3016 RMK A01 T02520164  RH  058%=      5-min Rain = 0
KTAS 111346Z 19012KT 25/16 A3016 RMK A01 T02520164  RH  058%=      5-min Rain = 0
KTAS 111347Z 19011KT 25/16 A3016 RMK A01 T02510164  RH  058%=      5-min Rain = 0
KTAS 111348Z 19014KT 25/16 A3016 RMK A01 T02520164  RH  058%=      5-min Rain = 0
KTAS 111349Z 19012KT 25/16 A3016 RMK A01 T02510164  RH  058%=      5-min Rain = 0
KTAS 111350Z 18011KT 25/16 A3016 RMK A01 T02520164  RH  058%=      5-min Rain = 0
KTAS 111351Z 18014KT 25/16 A3016 RMK A01 T02530164  RH  058%=      5-min Rain = 0
KTAS 111352Z 18015KT 25/16 A3016 RMK A01 T02510164  RH  058%=      5-min Rain = 0
KTAS 111353Z 18014KT 25/16 A3016 RMK A01 T02490164  RH  059%=      5-min Rain = 0
KTAS 111354Z 18014KT 25/16 A3016 RMK A01 T02490164  RH  059%=      5-min Rain = 0
KTAS 111355Z 19012KT 25/16 A3016 RMK A01 T02490164  RH  059%=      5-min Rain = 0
KTAS 111356Z 18011KT 25/17 A3016 RMK A01 T02510165  RH  059%=      5-min Rain = 0
KTAS 111357Z 18014KT 25/17 A3016 RMK A01 T02520165  RH  058%=      5-min Rain = 0
KTAS 111358Z 18015KT 25/16 A3016 RMK A01 T02510164  RH  058%=      5-min Rain = 0
KTAS 111359Z 18014KT 25/16 A3016 RMK A01 T02500164  RH  059%=      5-min Rain = 0
KTAS 111400Z 19014KT 25/17 A3016 RMK A01 T02500165  RH  059%=      5-min Rain = 0
KTAS 111401Z 20012KT 25/17 A3016 RMK A01 T02500165  RH  059%=      5-min Rain = 0
KTAS 111402Z 19013KT 25/17 A3016 RMK A01 T02500165  RH  059%=      5-min Rain = 0
KTAS 111403Z 19013KT 25/17 A3016 RMK A01 T02500165  RH  059%=      5-min Rain = 0
KTAS 111404Z 18011KT 25/17 A3016 RMK A01 T02500165  RH  059%=      5-min Rain = 0
KTAS 111405Z 19012KT 25/17 A3016 RMK A01 T02500165  RH  059%=      5-min Rain = 0
KTAS 111406Z 19012KT 25/17 A3016 RMK A01 T02480165  RH  060%=      5-min Rain = 0
KTAS 111407Z 20012KT 25/17 A3016 RMK A01 T02480165  RH  060%=      5-min Rain = 0
KTAS 111408Z 19012KT 25/17 A3016 RMK A01 T02480165  RH  060%=      5-min Rain = 0
KTAS 111409Z 19014KT 25/17 A3016 RMK A01 T02480165  RH  060%=      5-min Rain = 0
KTAS 111410Z 19012G17KT 25/17 A3016 RMK A01 T02470165  RH  060%=      5-min Rain = 0
KTAS 111411Z 19011KT 25/17 A3016 RMK A01 T02480166  RH  060%=      5-min Rain = 0
KTAS 111412Z 20009KT 25/17 A3016 RMK A01 T02490166  RH  060%=      5-min Rain = 0
KTAS 111413Z 19012KT 25/17 A3016 RMK A01 T02510167  RH  059%=      5-min Rain = 0
KTAS 111414Z 19010KT 25/17 A3016 RMK A01 T02520166  RH  059%=      5-min Rain = 0
KTAS 111415Z 20010KT 25/17 A3016 RMK A01 T02530166  RH  059%=      5-min Rain = 0
KTAS 111416Z 19009KT 25/17 A3016 RMK A01 T02540167  RH  059%=      5-min Rain = 0
KTAS 111417Z 18008KT 26/17 A3016 RMK A01 T02570168  RH  058%=      5-min Rain = 0
KTAS 111418Z 19014KT 26/17 A3016 RMK A01 T02580167  RH  057%=      5-min Rain = 0
KTAS 111419Z 20015KT 26/17 A3016 RMK A01 T02550166  RH  058%=      5-min Rain = 0
KTAS 111420Z 20012KT 25/17 A3016 RMK A01 T02540166  RH  058%=      5-min Rain = 0
KTAS 111421Z 19013KT 25/17 A3016 RMK A01 T02540166  RH  058%=      5-min Rain = 0
KTAS 111422Z 19012KT 26/17 A3016 RMK A01 T02550166  RH  058%=      5-min Rain = 0
KTAS 111423Z 20010KT 26/17 A3016 RMK A01 T02560167  RH  058%=      5-min Rain = 0
KTAS 111424Z 20012G17KT 26/17 A3016 RMK A01 T02580167  RH  057%=      5-min Rain = 0
KTAS 111425Z 19015KT 26/17 A3016 RMK A01 T02570166  RH  057%=      5-min Rain = 0
KTAS 111426Z 19015KT 26/17 A3016 RMK A01 T02550166  RH  058%=      5-min Rain = 0
KTAS 111427Z 19009KT 26/17 A3016 RMK A01 T02550167  RH  058%=      5-min Rain = 0
KTAS 111428Z 19011KT 26/17 A3016 RMK A01 T02590168  RH  057%=      5-min Rain = 0
KTAS 111429Z 19014KT 26/17 A3016 RMK A01 T02600167  RH  056%=      5-min Rain = 0
KTAS 111430Z 18013KT 26/17 A3016 RMK A01 T02590166  RH  057%=      5-min Rain = 0
KTAS 111431Z 19012G18KT 26/17 A3016 RMK A01 T02590167  RH  057%=      5-min Rain = 0
KTAS 111432Z 18015KT 26/17 A3016 RMK A01 T02580166  RH  057%=      5-min Rain = 0
KTAS 111433Z 18015KT 26/17 A3016 RMK A01 T02560166  RH  057%=      5-min Rain = 0
KTAS 111434Z 19012KT 26/17 A3016 RMK A01 T02560166  RH  057%=      5-min Rain = 0
KTAS 111435Z 19013KT 26/17 A3016 RMK A01 T02570167  RH  057%=      5-min Rain = 0
KTAS 111436Z 19014KT 26/17 A3016 RMK A01 T02580166  RH  057%=      5-min Rain = 0
KTAS 111437Z 19012KT 26/17 A3016 RMK A01 T02570167  RH  057%=      5-min Rain = 0
KTAS 111438Z 19013KT 26/17 A3016 RMK A01 T02600167  RH  057%=      5-min Rain = 0
KTAS 111439Z 19013KT 26/17 A3016 RMK A01 T02610166  RH  056%=      5-min Rain = 0
KTAS 111440Z 19013KT 26/17 A3016 RMK A01 T02600166  RH  056%=      5-min Rain = 0
KTAS 111441Z 19014KT 26/17 A3016 RMK A01 T02580166  RH  057%=      5-min Rain = 0
KTAS 111442Z 19014KT 26/17 A3016 RMK A01 T02580166  RH  057%=      5-min Rain = 0
KTAS 111443Z 19013KT 26/17 A3016 RMK A01 T02570165  RH  057%=      5-min Rain = 0
KTAS 111444Z 20012KT 26/17 A3016 RMK A01 T02580166  RH  057%=      5-min Rain = 0
KTAS 111445Z 19012KT 26/17 A3016 RMK A01 T02600166  RH  056%=      5-min Rain = 0
KTAS 111446Z 19012KT 26/17 A3016 RMK A01 T02620167  RH  056%=      5-min Rain = 0
KTAS 111447Z 19014KT 26/17 A3016 RMK A01 T02620166  RH  056%=      5-min Rain = 0
KTAS 111448Z 19012KT 26/17 A3016 RMK A01 T02600167  RH  056%=      5-min Rain = 0
KTAS 111449Z 19012KT 26/17 A3016 RMK A01 T02610166  RH  056%=      5-min Rain = 0
KTAS 111450Z 18013KT 26/17 A3016 RMK A01 T02600166  RH  056%=      5-min Rain = 0
KTAS 111451Z 18010KT 26/17 A3016 RMK A01 T02610167  RH  056%=      5-min Rain = 0
KTAS 111452Z 19011KT 26/17 A3016 RMK A01 T02640168  RH  055%=      5-min Rain = 0
KTAS 111453Z 18014KT 27/17 A3016 RMK A01 T02650167  RH  055%=      5-min Rain = 0
KTAS 111454Z 18012KT 26/17 A3016 RMK A01 T02640168  RH  055%=      5-min Rain = 0
KTAS 111455Z 20010KT 27/17 A3016 RMK A01 T02660169  RH  055%=      5-min Rain = 0
KTAS 111456Z 19012KT 27/17 A3016 RMK A01 T02680168  RH  054%=      5-min Rain = 0
KTAS 111457Z 19013KT 27/17 A3016 RMK A01 T02670167  RH  054%=      5-min Rain = 0
KTAS 111458Z 19013KT 27/17 A3016 RMK A01 T02670167  RH  054%=      5-min Rain = 0
KTAS 111459Z 19013KT 27/17 A3016 RMK A01 T02690167  RH  054%=      5-min Rain = 0
KTAS 111500Z 18014KT 27/17 A3016 RMK A01 T02710167  RH  053%=      5-min Rain = 0
KTAS 111501Z 18014KT 27/17 A3016 RMK A01 T02700166  RH  053%=      5-min Rain = 0
KTAS 111502Z 19012KT 27/17 A3016 RMK A01 T02700167  RH  053%=      5-min Rain = 0
KTAS 111503Z 18012KT 27/17 A3016 RMK A01 T02710166  RH  053%=      5-min Rain = 0
KTAS 111504Z 18011KT 27/17 A3016 RMK A01 T02710166  RH  053%=      5-min Rain = 0
KTAS 111505Z 18014KT 27/17 A3016 RMK A01 T02740165  RH  051%=      5-min Rain = 0
KTAS 111506Z 19012KT 28/17 A3016 RMK A01 T02770165  RH  051%=      5-min Rain = 0
KTAS 111507Z 19012G17KT 28/17 A3016 RMK A01 T02750166  RH  052%=      5-min Rain = 0
KTAS 111508Z 19014KT 27/16 A3016 RMK A01 T02740164  RH  051%=      5-min Rain = 0
KTAS 111509Z 19013KT 27/16 A3016 RMK A01 T02740164  RH  051%=      5-min Rain = 0
KTAS 111510Z 19012KT 28/16 A3016 RMK A01 T02760164  RH  050%=      5-min Rain = 0
KTAS 111511Z 19014KT 28/16 A3016 RMK A01 T02780163  RH  050%=      5-min Rain = 0
KTAS 111512Z 20012KT 28/17 A3016 RMK A01 T02760165  RH  051%=      5-min Rain = 0
KTAS 111513Z 20009G14KT 28/17 A3016 RMK A01 T02770166  RH  051%=      5-min Rain = 0
KTAS 111514Z 18013KT 28/17 A3016 RMK A01 T02790165  RH  050%=      5-min Rain = 0
KTAS 111515Z 19014KT 28/17 A3016 RMK A01 T02820165  RH  049%=      5-min Rain = 0
KTAS 111516Z 20013KT 28/17 A3016 RMK A01 T02830165  RH  049%=      5-min Rain = 0
KTAS 111517Z 20011KT 28/17 A3016 RMK A01 T02800166  RH  050%=      5-min Rain = 0
KTAS 111518Z 18012G17KT 28/17 A3016 RMK A01 T02800166  RH  050%=      5-min Rain = 0
KTAS 111519Z 18014KT 28/16 A3016 RMK A01 T02800163  RH  049%=      5-min Rain = 0
KTAS 111520Z 19012KT 28/16 A3016 RMK A01 T02800163  RH  049%=      5-min Rain = 0
KTAS 111521Z 18011KT 28/16 A3016 RMK A01 T02780163  RH  050%=      5-min Rain = 0
KTAS 111522Z 21012KT 28/16 A3016 RMK A01 T02800164  RH  049%=      5-min Rain = 0
KTAS 111523Z 20010KT 28/16 A3015 RMK A01 T02810163  RH  049%=      5-min Rain = 0
KTAS 111524Z 19009KT 28/16 A3016 RMK A01 T02810164  RH  049%=      5-min Rain = 0
KTAS 111525Z 18012KT 29/16 A3016 RMK A01 T02860162  RH  047%=      5-min Rain = 0
KTAS 111526Z 19011KT 29/16 A3016 RMK A01 T02850162  RH  047%=      5-min Rain = 0
KTAS 111527Z 19010KT 29/16 A3016 RMK A01 T02850164  RH  048%=      5-min Rain = 0
KTAS 111528Z 20014KT 29/17 A3016 RMK A01 T02880165  RH  047%=      5-min Rain = 0
KTAS 111529Z 20012KT 29/16 A3015 RMK A01 T02860164  RH  048%=      5-min Rain = 0
KTAS 111530Z 20014KT 29/16 A3016 RMK A01 T02850161  RH  047%=      5-min Rain = 0
KTAS 111531Z 19012KT 29/16 A3016 RMK A01 T02880160  RH  046%=      5-min Rain = 0
KTAS 111532Z 18013KT 29/16 A3016 RMK A01 T02860161  RH  047%=      5-min Rain = 0
KTAS 111533Z 19014KT 28/16 A3016 RMK A01 T02830160  RH  047%=      5-min Rain = 0
KTAS 111534Z 18013KT 28/16 A3016 RMK A01 T02810161  RH  048%=      5-min Rain = 0
KTAS 111535Z 18015KT 28/16 A3016 RMK A01 T02840161  RH  047%=      5-min Rain = 0
KTAS 111536Z 20012KT 28/16 A3016 RMK A01 T02840161  RH  047%=      5-min Rain = 0
KTAS 111537Z 19011G16KT 29/16 A3016 RMK A01 T02850162  RH  047%=      5-min Rain = 0
KTAS 111538Z 20013KT 29/16 A3016 RMK A01 T02880161  RH  046%=      5-min Rain = 0
KTAS 111539Z 18016KT 29/16 A3016 RMK A01 T02880159  RH  046%=      5-min Rain = 0
KTAS 111540Z 19014KT 29/16 A3016 RMK A01 T02860159  RH  046%=      5-min Rain = 0
KTAS 111541Z 20010KT 29/16 A3016 RMK A01 T02860162  RH  047%=      5-min Rain = 0
KTAS 111542Z 19011KT 29/16 A3016 RMK A01 T02890160  RH  046%=      5-min Rain = 0
KTAS 111543Z 20013G18KT 29/16 A3016 RMK A01 T02880161  RH  046%=      5-min Rain = 0
KTAS 111544Z 19015KT 29/16 A3016 RMK A01 T02890159  RH  045%=      5-min Rain = 0
KTAS 111545Z 20011KT 29/16 A3016 RMK A01 T02890159  RH  045%=      5-min Rain = 0
KTAS 111546Z 18011KT 29/16 A3016 RMK A01 T02920159  RH  045%=      5-min Rain = 0
KTAS 111547Z 19010KT 30/16 A3016 RMK A01 T02950160  RH  044%=      5-min Rain = 0
KTAS 111548Z 20009KT 30/16 A3016 RMK A01 T02970161  RH  044%=      5-min Rain = 0
KTAS 111549Z 21009KT 30/16 A3016 RMK A01 T02980159  RH  043%=      5-min Rain = 0
KTAS 111550Z 20013KT 30/16 A3015 RMK A01 T02970160  RH  043%=      5-min Rain = 0
KTAS 111551Z 19013KT 29/16 A3016 RMK A01 T02930158  RH  044%=      5-min Rain = 0
KTAS 111552Z 18013KT 29/16 A3016 RMK A01 T02940158  RH  044%=      5-min Rain = 0
KTAS 111553Z 18013KT 30/16 A3016 RMK A01 T02960158  RH  043%=      5-min Rain = 0
KTAS 111554Z 19014KT 30/16 A3016 RMK A01 T02970158  RH  043%=      5-min Rain = 0
KTAS 111555Z 20012KT 29/16 A3016 RMK A01 T02940158  RH  044%=      5-min Rain = 0
KTAS 111556Z 18012KT 29/16 A3016 RMK A01 T02940158  RH  044%=      5-min Rain = 0
KTAS 111557Z 19014KT 30/16 A3016 RMK A01 T02950159  RH  044%=      5-min Rain = 0
KTAS 111558Z 20013KT 29/16 A3015 RMK A01 T02930159  RH  044%=      5-min Rain = 0
KTAS 111559Z 20013KT 29/16 A3015 RMK A01 T02940158  RH  044%=      5-min Rain = 0
KTAS 111600Z 21010KT 29/16 A3015 RMK A01 T02940157  RH  044%=      5-min Rain = 0
KTAS 111601Z 21012KT 29/16 A3015 RMK A01 T02940156  RH  043%=      5-min Rain = 0
KTAS 111602Z 21012KT 30/16 A3015 RMK A01 T02950157  RH  043%=      5-min Rain = 0
KTAS 111603Z 20012KT 30/16 A3015 RMK A01 T02980158  RH  043%=      5-min Rain = 0
KTAS 111604Z 21011KT 30/16 A3015 RMK A01 T02990159  RH  043%=      5-min Rain = 0
KTAS 111605Z 19012KT 30/16 A3015 RMK A01 T02980159  RH  043%=      5-min Rain = 0
KTAS 111606Z 19009KT 29/16 A3015 RMK A01 T02940158  RH  044%=      5-min Rain = 0
KTAS 111607Z 18008G13KT 30/16 A3015 RMK A01 T02950159  RH  044%=      5-min Rain = 0
KTAS 111608Z 17012KT 30/16 A3015 RMK A01 T02960158  RH  043%=      5-min Rain = 0
KTAS 111609Z 18009KT 30/16 A3015 RMK A01 T02980158  RH  043%=      5-min Rain = 0
KTAS 111610Z 20011KT 30/16 A3015 RMK A01 T03020158  RH  042%=      5-min Rain = 0
KTAS 111611Z 20012KT 31/16 A3015 RMK A01 T03050156  RH  041%=      5-min Rain = 0
KTAS 111612Z 21009KT 30/16 A3015 RMK A01 T03010155  RH  041%=      5-min Rain = 0
KTAS 111613Z 20012KT 30/16 A3015 RMK A01 T03030155  RH  041%=      5-min Rain = 0
KTAS 111614Z 19012KT 30/16 A3015 RMK A01 T03020155  RH  041%=      5-min Rain = 0
KTAS 111615Z 20013KT 30/16 A3015 RMK A01 T02990157  RH  042%=      5-min Rain = 0
KTAS 111616Z 19011KT 29/16 A3015 RMK A01 T02930157  RH  044%=      5-min Rain = 0
KTAS 111617Z 19011KT 30/16 A3015 RMK A01 T02960158  RH  043%=      5-min Rain = 0
KTAS 111618Z 19013KT 30/16 A3015 RMK A01 T03000158  RH  042%=      5-min Rain = 0
KTAS 111619Z 18011KT 30/16 A3015 RMK A01 T02980156  RH  042%=      5-min Rain = 0
KTAS 111620Z 17011KT 30/15 A3015 RMK A01 T03010154  RH  041%=      5-min Rain = 0
KTAS 111621Z 18012KT 30/15 A3015 RMK A01 T03020153  RH  040%=      5-min Rain = 0
KTAS 111622Z 18012KT 30/15 A3015 RMK A01 T03030153  RH  040%=      5-min Rain = 0
KTAS 111623Z 18011KT 30/16 A3015 RMK A01 T03020155  RH  041%=      5-min Rain = 0
KTAS 111624Z 19010G15KT 31/16 A3015 RMK A01 T03060156  RH  040%=      5-min Rain = 0
KTAS 111625Z 20011KT 31/16 A3015 RMK A01 T03090155  RH  039%=      5-min Rain = 0
KTAS 111626Z 20009KT 30/15 A3015 RMK A01 T03040153  RH  040%=      5-min Rain = 0
KTAS 111627Z 20007KT 30/16 A3015 RMK A01 T02990155  RH  042%=      5-min Rain = 0
KTAS 111628Z 18012KT 30/16 A3015 RMK A01 T03030156  RH  041%=      5-min Rain = 0
KTAS 111629Z 19012KT 31/16 A3015 RMK A01 T03080155  RH  040%=      5-min Rain = 0
KTAS 111630Z 21010KT 31/15 A3015 RMK A01 T03070154  RH  040%=      5-min Rain = 0
KTAS 111631Z 22010KT 31/16 A3015 RMK A01 T03090155  RH  039%=      5-min Rain = 0
KTAS 111632Z 20010KT 31/16 A3015 RMK A01 T03060156  RH  040%=      5-min Rain = 0
KTAS 111633Z 21009KT 31/16 A3015 RMK A01 T03060156  RH  040%=      5-min Rain = 0
KTAS 111634Z 19010KT 31/15 A3015 RMK A01 T03070153  RH  039%=      5-min Rain = 0
KTAS 111635Z 20010KT 31/15 A3015 RMK A01 T03080153  RH  039%=      5-min Rain = 0
KTAS 111636Z 20007KT 31/15 A3015 RMK A01 T03070153  RH  039%=      5-min Rain = 0
KTAS 111637Z 19010KT 31/15 A3015 RMK A01 T03050153  RH  040%=      5-min Rain = 0
KTAS 111638Z 21013G18KT 31/15 A3015 RMK A01 T03060151  RH  039%=      5-min Rain = 0
KTAS 111639Z 21012KT 31/15 A3015 RMK A01 T03060151  RH  039%=      5-min Rain = 0
KTAS 111640Z 19012KT 31/15 A3015 RMK A01 T03070152  RH  039%=      5-min Rain = 0
KTAS 111641Z 20009KT 30/15 A3015 RMK A01 T03040153  RH  040%=      5-min Rain = 0
KTAS 111642Z 19011KT 30/15 A3015 RMK A01 T03040152  RH  040%=      5-min Rain = 0
KTAS 111643Z 21010KT 31/15 A3015 RMK A01 T03070150  RH  039%=      5-min Rain = 0
KTAS 111644Z 21012KT 31/15 A3015 RMK A01 T03060149  RH  039%=      5-min Rain = 0
KTAS 111645Z 20009KT 31/15 A3015 RMK A01 T03080151  RH  039%=      5-min Rain = 0
KTAS 111646Z 19012KT 31/15 A3015 RMK A01 T03110153  RH  038%=      5-min Rain = 0
KTAS 111647Z 19012KT 31/15 A3015 RMK A01 T03090152  RH  039%=      5-min Rain = 0
KTAS 111648Z 22010G15KT 31/15 A3015 RMK A01 T03090152  RH  039%=      5-min Rain = 0
KTAS 111649Z 20013KT 32/15 A3014 RMK A01 T03150149  RH  037%=      5-min Rain = 0
KTAS 111650Z 20014KT 32/14 A3014 RMK A01 T03150144  RH  036%=      5-min Rain = 0
KTAS 111651Z 20009KT 31/14 A3015 RMK A01 T03110144  RH  036%=      5-min Rain = 0
KTAS 111652Z 18009KT 31/15 A3015 RMK A01 T03100145  RH  037%=      5-min Rain = 0
KTAS 111653Z 18011KT 31/15 A3015 RMK A01 T03090147  RH  037%=      5-min Rain = 0
KTAS 111654Z 16013KT 31/15 A3015 RMK A01 T03070146  RH  038%=      5-min Rain = 0
KTAS 111655Z 16011KT 31/15 A3015 RMK A01 T03090148  RH  038%=      5-min Rain = 0
KTAS 111656Z 16010KT 31/15 A3015 RMK A01 T03130149  RH  037%=      5-min Rain = 0
KTAS 111657Z 15009KT 31/15 A3015 RMK A01 T03130149  RH  037%=      5-min Rain = 0
KTAS 111658Z 16009KT 31/15 A3015 RMK A01 T03120149  RH  037%=      5-min Rain = 0
KTAS 111659Z 18012G17KT 31/15 A3015 RMK A01 T03130149  RH  037%=      5-min Rain = 0
KTAS 111700Z 20012KT 32/15 A3015 RMK A01 T03150146  RH  036%=      5-min Rain = 0
KTAS 111701Z 21012G18KT 31/15 A3014 RMK A01 T03110145  RH  037%=      5-min Rain = 0
KTAS 111702Z 21011G16KT 31/14 A3014 RMK A01 T03090143  RH  036%=      5-min Rain = 0
KTAS 111703Z 21009KT 30/14 A3015 RMK A01 T03040143  RH  038%=      5-min Rain = 0
KTAS 111704Z 20009KT 31/14 A3015 RMK A01 T03070144  RH  037%=      5-min Rain = 0
KTAS 111705Z 17010G15KT 31/15 A3015 RMK A01 T03140145  RH  036%=      5-min Rain = 0
KTAS 111706Z 17012KT 32/14 A3015 RMK A01 T03180144  RH  035%=      5-min Rain = 0
KTAS 111707Z 15009KT 32/15 A3015 RMK A01 T03170145  RH  035%=      5-min Rain = 0
KTAS 111708Z 16013G19KT 32/15 A3015 RMK A01 T03160145  RH  035%=      5-min Rain = 0
KTAS 111709Z 16011KT 31/14 A3015 RMK A01 T03110142  RH  036%=      5-min Rain = 0
KTAS 111710Z 16010KT 31/14 A3015 RMK A01 T03060142  RH  037%=      5-min Rain = 0
KTAS 111711Z 15010KT 30/14 A3015 RMK A01 T03040143  RH  037%=      5-min Rain = 0
KTAS 111712Z 18010KT 30/14 A3015 RMK A01 T03030143  RH  038%=      5-min Rain = 0
KTAS 111713Z 20014KT 31/14 A3014 RMK A01 T03050142  RH  037%=      5-min Rain = 0
KTAS 111714Z 20011KT 31/15 A3014 RMK A01 T03080145  RH  037%=      5-min Rain = 0
KTAS 111715Z 21009KT 31/15 A3014 RMK A01 T03100145  RH  037%=      5-min Rain = 0
KTAS 111716Z 21012KT 31/14 A3014 RMK A01 T03120144  RH  036%=      5-min Rain = 0
KTAS 111717Z 20009KT 31/15 A3014 RMK A01 T03110145  RH  036%=      5-min Rain = 0
KTAS 111718Z 19010KT 31/15 A3014 RMK A01 T03140146  RH  036%=      5-min Rain = 0
KTAS 111719Z 19010KT 32/15 A3014 RMK A01 T03180146  RH  035%=      5-min Rain = 0
KTAS 111720Z 17012KT 32/15 A3014 RMK A01 T03220147  RH  035%=      5-min Rain = 0
KTAS 111721Z 19014KT 32/15 A3014 RMK A01 T03180145  RH  035%=      5-min Rain = 0
KTAS 111722Z 19013KT 31/15 A3014 RMK A01 T03100145  RH  037%=      5-min Rain = 0
KTAS 111723Z 17013KT 31/14 A3014 RMK A01 T03060140  RH  036%=      5-min Rain = 0
KTAS 111724Z 19011KT 31/14 A3014 RMK A01 T03060143  RH  037%=      5-min Rain = 0
KTAS 111725Z 18011KT 31/15 A3014 RMK A01 T03090147  RH  038%=      5-min Rain = 0
KTAS 111726Z 16011KT 31/15 A3014 RMK A01 T03140145  RH  036%=      5-min Rain = 0
KTAS 111727Z 18011G17KT 32/14 A3014 RMK A01 T03220142  RH  034%=      5-min Rain = 0
KTAS 111728Z 15017KT 32/14 A3014 RMK A01 T03220136  RH  032%=      5-min Rain = 0
KTAS 111729Z 18014KT 32/14 A3014 RMK A01 T03210142  RH  034%=      5-min Rain = 0
KTAS 111730Z 18013KT 32/15 A3014 RMK A01 T03240145  RH  034%=      5-min Rain = 0
KTAS 111731Z 19012KT 32/14 A3014 RMK A01 T03230144  RH  034%=      5-min Rain = 0
KTAS 111732Z 17013KT 32/14 A3014 RMK A01 T03210141  RH  034%=      5-min Rain = 0
KTAS 111733Z 17014KT 32/14 A3014 RMK A01 T03190135  RH  033%=      5-min Rain = 0
KTAS 111734Z 16011KT 31/14 A3014 RMK A01 T03110135  RH  034%=      5-min Rain = 0
KTAS 111735Z 15013KT 31/14 A3014 RMK A01 T03110136  RH  034%=      5-min Rain = 0
KTAS 111736Z 14015KT 32/14 A3014 RMK A01 T03190136  RH  033%=      5-min Rain = 0
KTAS 111737Z 15017G23KT 33/14 A3014 RMK A01 T03270137  RH  032%=      5-min Rain = 0
KTAS 111738Z 16015G20KT 33/14 A3014 RMK A01 T03260136  RH  032%=      5-min Rain = 0
KTAS 111739Z 16016KT 32/14 A3014 RMK A01 T03230136  RH  032%=      5-min Rain = 0
KTAS 111740Z 16015KT 32/14 A3014 RMK A01 T03230137  RH  032%=      5-min Rain = 0
KTAS 111741Z 14013KT 33/14 A3014 RMK A01 T03250136  RH  032%=      5-min Rain = 0
KTAS 111742Z 14010KT 32/13 A3014 RMK A01 T03220134  RH  032%=      5-min Rain = 0
KTAS 111743Z 15014KT 32/14 A3014 RMK A01 T03200135  RH  033%=      5-min Rain = 0
KTAS 111744Z 16015KT 32/13 A3014 RMK A01 T03220132  RH  032%=      5-min Rain = 0
KTAS 111745Z 16016KT 33/13 A3014 RMK A01 T03260132  RH  031%=      5-min Rain = 0
KTAS 111746Z 16015KT 33/13 A3013 RMK A01 T03270134  RH  031%=      5-min Rain = 0
KTAS 111747Z 16012KT 33/14 A3013 RMK A01 T03290136  RH  031%=      5-min Rain = 0
KTAS 111748Z 16011KT 33/14 A3013 RMK A01 T03280137  RH  031%=      5-min Rain = 0
KTAS 111749Z 14014KT 33/14 A3013 RMK A01 T03290136  RH  031%=      5-min Rain = 0
KTAS 111750Z 15014KT 33/14 A3013 RMK A01 T03310136  RH  031%=      5-min Rain = 0
KTAS 111751Z 16013KT 33/13 A3013 RMK A01 T03300132  RH  030%=      5-min Rain = 0
KTAS 111752Z 14016KT 33/13 A3013 RMK A01 T03320132  RH  030%=      5-min Rain = 0
KTAS 111753Z 15014KT 33/13 A3013 RMK A01 T03310128  RH  029%=      5-min Rain = 0
KTAS 111754Z 17012KT 32/13 A3013 RMK A01 T03240130  RH  031%=      5-min Rain = 0
KTAS 111755Z 15014KT 33/13 A3013 RMK A01 T03260131  RH  031%=      5-min Rain = 0
KTAS 111756Z 17017KT 33/13 A3013 RMK A01 T03300132  RH  030%=      5-min Rain = 0
KTAS 111757Z 17017KT 33/13 A3013 RMK A01 T03310131  RH  030%=      5-min Rain = 0
KTAS 111758Z 17015KT 33/13 A3013 RMK A01 T03310132  RH  030%=      5-min Rain = 0
KTAS 111759Z 18015KT 33/13 A3013 RMK A01 T03300131  RH  030%=      5-min Rain = 0
KTAS 111800Z 18013G18KT 33/12 A3013 RMK A01 T03280123  RH  029%=      5-min Rain = 0
KTAS 111801Z 18011KT 33/12 A3013 RMK A01 T03250118  RH  028%=      5-min Rain = 0
KTAS 111802Z 16016KT 33/11 A3013 RMK A01 T03270111  RH  027%=      5-min Rain = 0
KTAS 111803Z 16017G22KT 33/10 A3013 RMK A01 T03310101  RH  024%=      5-min Rain = 0
KTAS 111804Z 16020KT 33/10 A3013 RMK A01 T03330104  RH  025%=      5-min Rain = 0
KTAS 111805Z 16018KT 33/11 A3013 RMK A01 T03320105  RH  025%=      5-min Rain = 0
KTAS 111806Z 17016KT 33/10 A3013 RMK A01 T03290104  RH  025%=      5-min Rain = 0
KTAS 111807Z 16013KT 33/10 A3013 RMK A01 T03300104  RH  025%=      5-min Rain = 0
KTAS 111808Z 17016KT 33/11 A3013 RMK A01 T03320107  RH  025%=      5-min Rain = 0
KTAS 111809Z 17016G22KT 33/11 A3013 RMK A01 T03270113  RH  027%=      5-min Rain = 0
KTAS 111810Z 17015KT 32/11 A3013 RMK A01 T03220113  RH  028%=      5-min Rain = 0
KTAS 111811Z 16016KT 32/11 A3013 RMK A01 T03170114  RH  029%=      5-min Rain = 0
KTAS 111812Z 17012KT 32/11 A3013 RMK A01 T03210114  RH  028%=      5-min Rain = 0
KTAS 111813Z 15011G16KT 32/12 A3012 RMK A01 T03230115  RH  028%=      5-min Rain = 0
KTAS 111814Z 17017G23KT 33/11 A3012 RMK A01 T03280114  RH  027%=      5-min Rain = 0
KTAS 111815Z 18018KT 33/12 A3012 RMK A01 T03300116  RH  027%=      5-min Rain = 0
KTAS 111816Z 18015KT 33/12 A3012 RMK A01 T03280118  RH  028%=      5-min Rain = 0
KTAS 111817Z 20016KT 33/12 A3012 RMK A01 T03290116  RH  027%=      5-min Rain = 0
KTAS 111818Z 18013KT 32/12 A3012 RMK A01 T03220116  RH  028%=      5-min Rain = 0
KTAS 111819Z 19014G20KT 32/12 A3012 RMK A01 T03230118  RH  029%=      5-min Rain = 0
KTAS 111820Z 20016G21KT 33/11 A3012 RMK A01 T03300114  RH  027%=      5-min Rain = 0
KTAS 111821Z 19016KT 33/12 A3012 RMK A01 T03300118  RH  027%=      5-min Rain = 0
KTAS 111822Z 18020KT 33/13 A3012 RMK A01 T03300125  RH  029%=      5-min Rain = 0
KTAS 111823Z 18018KT 33/12 A3012 RMK A01 T03300115  RH  027%=      5-min Rain = 0
KTAS 111824Z 19015KT 33/12 A3012 RMK A01 T03310120  RH  028%=      5-min Rain = 0
KTAS 111825Z 19013KT 33/13 A3012 RMK A01 T03300129  RH  030%=      5-min Rain = 0
KTAS 111826Z 19013KT 33/13 A3012 RMK A01 T03290128  RH  029%=      5-min Rain = 0
KTAS 111827Z 18014KT 32/13 A3012 RMK A01 T03240128  RH  030%=      5-min Rain = 0
KTAS 111828Z 16009KT 32/13 A3012 RMK A01 T03180129  RH  032%=      5-min Rain = 0
KTAS 111829Z 16013KT 32/13 A3012 RMK A01 T03160130  RH  032%=      5-min Rain = 0
KTAS 111830Z 17014G21KT 32/13 A3012 RMK A01 T03150130  RH  032%=      5-min Rain = 0
KTAS 111831Z 17015KT 32/12 A3012 RMK A01 T03170121  RH  030%=      5-min Rain = 0
KTAS 111832Z 17017KT 33/12 A3012 RMK A01 T03270119  RH  028%=      5-min Rain = 0
KTAS 111833Z 17017KT 33/12 A3012 RMK A01 T03310121  RH  028%=      5-min Rain = 0
KTAS 111834Z 17014KT 33/12 A3012 RMK A01 T03290122  RH  028%=      5-min Rain = 0
KTAS 111835Z 18012G17KT 33/12 A3011 RMK A01 T03310122  RH  028%=      5-min Rain = 0
KTAS 111836Z 17011KT 33/13 A3011 RMK A01 T03340126  RH  028%=      5-min Rain = 0
KTAS 111837Z 15013KT 34/13 A3011 RMK A01 T03360129  RH  029%=      5-min Rain = 0
KTAS 111838Z 18012KT 34/13 A3011 RMK A01 T03370128  RH  028%=      5-min Rain = 0
KTAS 111839Z 19015KT 33/12 A3011 RMK A01 T03340120  RH  027%=      5-min Rain = 0
KTAS 111840Z 19015KT 33/11 A3011 RMK A01 T03330109  RH  025%=      5-min Rain = 0
KTAS 111841Z 19013G18KT 33/11 A3011 RMK A01 T03340114  RH  026%=      5-min Rain = 0
KTAS 111842Z 19012G17KT 34/12 A3011 RMK A01 T03360115  RH  026%=      5-min Rain = 0
KTAS 111843Z 20016KT 34/12 A3011 RMK A01 T03360116  RH  026%=      5-min Rain = 0
KTAS 111844Z 20015KT 33/12 A3011 RMK A01 T03310116  RH  027%=      5-min Rain = 0
KTAS 111845Z 19013KT 33/12 A3011 RMK A01 T03260116  RH  028%=      5-min Rain = 0
KTAS 111846Z 19017KT 32/12 A3011 RMK A01 T03220115  RH  028%=      5-min Rain = 0
KTAS 111847Z 18013KT 32/11 A3011 RMK A01 T03200114  RH  028%=      5-min Rain = 0
KTAS 111848Z 20011KT 32/12 A3011 RMK A01 T03200116  RH  029%=      5-min Rain = 0
KTAS 111849Z 19017G24KT 33/12 A301 RMK A01 T03290119  RH  028%=      5-min Rain = 0
KTAS 111850Z 17016KT 34/12 A3011 RMK A01 T03360119  RH  027%=      5-min Rain = 0
KTAS 111851Z 18016G21KT 34/12 A3011 RMK A01 T03360118  RH  027%=      5-min Rain = 0
KTAS 111852Z 20017G24KT 34/12 A301 RMK A01 T03380119  RH  026%=      5-min Rain = 0
KTAS 111853Z 20020KT 34/12 A301 RMK A01 T03350118  RH  027%=      5-min Rain = 0
KTAS 111854Z 19016KT 33/12 A301 RMK A01 T03320118  RH  027%=      5-min Rain = 0
KTAS 111855Z 17017G22KT 33/12 A3011 RMK A01 T03320119  RH  027%=      5-min Rain = 0
KTAS 111856Z 17015G20KT 33/12 A3011 RMK A01 T03320120  RH  028%=      5-min Rain = 0
KTAS 111857Z 16017G22KT 33/12 A3011 RMK A01 T03330120  RH  027%=      5-min Rain = 0
KTAS 111858Z 16015KT 34/12 A3011 RMK A01 T03350121  RH  027%=      5-min Rain = 0
KTAS 111859Z 17013KT 34/12 A3011 RMK A01 T03370119  RH  027%=      5-min Rain = 0
KTAS 111900Z 17010G15KT 34/12 A301 RMK A01 T03360120  RH  027%=      5-min Rain = 0
KTAS 111901Z 17015G21KT 34/12 A3011 RMK A01 T03430119  RH  026%=      5-min Rain = 0
KTAS 111902Z 17016G22KT 35/12 A3011 RMK A01 T03460115  RH  025%=      5-min Rain = 0
KTAS 111903Z 17016KT 34/12 A301 RMK A01 T03400115  RH  025%=      5-min Rain = 0
KTAS 111904Z 16013KT 34/12 A301 RMK A01 T03370115  RH  026%=      5-min Rain = 0
KTAS 111905Z 16013KT 34/12 A301 RMK A01 T03360116  RH  026%=      5-min Rain = 0
KTAS 111906Z 15010G15KT 34/12 A301 RMK A01 T03360117  RH  026%=      5-min Rain = 0
KTAS 111907Z 16016G23KT 34/12 A301 RMK A01 T03420116  RH  025%=      5-min Rain = 0
KTAS 111908Z 18017KT 35/11 A301 RMK A01 T03460113  RH  024%=      5-min Rain = 0
KTAS 111909Z 17016KT 34/11 A301 RMK A01 T03420112  RH  025%=      5-min Rain = 0
KTAS 111910Z 17017KT 34/11 A301 RMK A01 T03390112  RH  025%=      5-min Rain = 0
KTAS 111911Z 17018KT 34/11 A301 RMK A01 T03430110  RH  024%=      5-min Rain = 0
KTAS 111912Z 17012KT 34/11 A301 RMK A01 T03400111  RH  025%=      5-min Rain = 0
KTAS 111913Z 17011KT 34/11 A301 RMK A01 T03400110  RH  025%=      5-min Rain = 0
KTAS 111914Z 17012G18KT 34/11 A301 RMK A01 T03360110  RH  025%=      5-min Rain = 0
KTAS 111915Z 17019KT 34/11 A301 RMK A01 T03380108  RH  025%=      5-min Rain = 0
KTAS 111916Z 16015KT 34/11 A301 RMK A01 T03360110  RH  025%=      5-min Rain = 0
KTAS 111917Z 16018G24KT 34/11 A301 RMK A01 T03390110  RH  025%=      5-min Rain = 0
KTAS 111918Z 16012KT 34/11 A301 RMK A01 T03390110  RH  025%=      5-min Rain = 0
KTAS 111919Z 17013KT 34/11 A301 RMK A01 T03410110  RH  025%=      5-min Rain = 0
KTAS 111920Z 17014G19KT 34/11 A3009 RMK A01 T03410110  RH  024%=      5-min Rain = 0
KTAS 111921Z 19015KT 35/11 A3009 RMK A01 T03450107  RH  023%=      5-min Rain = 0
KTAS 111922Z 20015G22KT 34/11 A3009 RMK A01 T03440108  RH  024%=      5-min Rain = 0
KTAS 111923Z 19015G21KT 34/11 A3009 RMK A01 T03430108  RH  024%=      5-min Rain = 0
KTAS 111924Z 18011G16KT 34/11 A3009 RMK A01 T03420109  RH  024%=      5-min Rain = 0
KTAS 111925Z 17014G19KT 34/11 A3009 RMK A01 T03420112  RH  025%=      5-min Rain = 0
KTAS 111926Z 19016G21KT 34/11 A3009 RMK A01 T03430112  RH  024%=      5-min Rain = 0
KTAS 111927Z 18019KT 34/11 A3009 RMK A01 T03430112  RH  025%=      5-min Rain = 0
KTAS 111928Z 18014KT 34/11 A3009 RMK A01 T03410112  RH  025%=      5-min Rain = 0
KTAS 111929Z 16017KT 34/11 A3009 RMK A01 T03440111  RH  024%=      5-min Rain = 0
KTAS 111930Z 16017KT 35/11 A3009 RMK A01 T03450110  RH  024%=      5-min Rain = 0
KTAS 111931Z 16014KT 34/11 A3009 RMK A01 T03420110  RH  024%=      5-min Rain = 0
KTAS 111932Z 15014KT 34/11 A3009 RMK A01 T03430110  RH  024%=      5-min Rain = 0
KTAS 111933Z 16014KT 34/11 A3009 RMK A01 T03410110  RH  025%=      5-min Rain = 0
KTAS 111934Z 18014KT 34/11 A3009 RMK A01 T03420108  RH  024%=      5-min Rain = 0
KTAS 111935Z 17012KT 34/11 A3009 RMK A01 T03400108  RH  024%=      5-min Rain = 0
KTAS 111936Z 16014KT 34/11 A3009 RMK A01 T03410108  RH  024%=      5-min Rain = 0
KTAS 111937Z 18014KT 34/11 A3009 RMK A01 T03420108  RH  024%=      5-min Rain = 0
KTAS 111938Z 18016KT 34/11 A3009 RMK A01 T03430109  RH  024%=      5-min Rain = 0
KTAS 111939Z 19017KT 34/11 A3009 RMK A01 T03440110  RH  024%=      5-min Rain = 0
KTAS 111940Z 18016KT 34/11 A3009 RMK A01 T03430110  RH  024%=      5-min Rain = 0
KTAS 111941Z 17015G20KT 35/11 A3009 RMK A01 T03460109  RH  024%=      5-min Rain = 0
KTAS 111942Z 19016KT 35/11 A3009 RMK A01 T03460109  RH  024%=      5-min Rain = 0
KTAS 111943Z 20013KT 34/11 A3009 RMK A01 T03400110  RH  025%=      5-min Rain = 0
KTAS 111944Z 18013KT 34/11 A3009 RMK A01 T03350110  RH  025%=      5-min Rain = 0
KTAS 111945Z 17014G21KT 33/11 A3008 RMK A01 T03330110  RH  026%=      5-min Rain = 0
KTAS 111946Z 18018KT 33/11 A3009 RMK A01 T03320110  RH  026%=      5-min Rain = 0
KTAS 111947Z 17019KT 33/11 A3009 RMK A01 T03320110  RH  026%=      5-min Rain = 0
KTAS 111948Z 18015G20KT 33/11 A3009 RMK A01 T03320110  RH  026%=      5-min Rain = 0
KTAS 111949Z 17012KT 34/11 A3009 RMK A01 T03350112  RH  026%=      5-min Rain = 0
KTAS 111950Z 16012KT 34/11 A3008 RMK A01 T03390112  RH  025%=      5-min Rain = 0
KTAS 111951Z 17010KT 34/11 A3008 RMK A01 T03380113  RH  025%=      5-min Rain = 0
KTAS 111952Z 19012KT 34/12 A3008 RMK A01 T03430116  RH  025%=      5-min Rain = 0
KTAS 111953Z 19014KT 34/12 A3008 RMK A01 T03440116  RH  025%=      5-min Rain = 0
KTAS 111954Z 20015KT 34/12 A3008 RMK A01 T03420117  RH  026%=      5-min Rain = 0
KTAS 111955Z 17017G22KT 35/11 A3008 RMK A01 T03460114  RH  024%=      5-min Rain = 0
KTAS 111956Z 17018KT 35/11 A3008 RMK A01 T03460114  RH  024%=      5-min Rain = 0
KTAS 111957Z 18016KT 34/12 A3008 RMK A01 T03420116  RH  025%=      5-min Rain = 0
KTAS 111958Z 19012G17KT 34/12 A3008 RMK A01 T03390115  RH  026%=      5-min Rain = 0
KTAS 111959Z 18014KT 34/12 A3008 RMK A01 T03400117  RH  026%=      5-min Rain = 0
KTAS 112000Z 17014G19KT 34/12 A3008 RMK A01 T03400119  RH  026%=      5-min Rain = 0
KTAS 112001Z 17015KT 34/12 A3008 RMK A01 T03420120  RH  026%=      5-min Rain = 0
KTAS 112002Z 16014G19KT 34/12 A3008 RMK A01 T03390121  RH  027%=      5-min Rain = 0
KTAS 112003Z 15015G20KT 34/12 A3008 RMK A01 T03350121  RH  027%=      5-min Rain = 0
KTAS 112004Z 17011KT 33/12 A3008 RMK A01 T03320121  RH  028%=      5-min Rain = 0
KTAS 112005Z 17008KT 33/12 A3008 RMK A01 T03320121  RH  028%=      5-min Rain = 0
KTAS 112006Z 16010KT 33/12 A3007 RMK A01 T03330121  RH  028%=      5-min Rain = 0
KTAS 112007Z 18014KT 33/12 A3007 RMK A01 T03330122  RH  028%=      5-min Rain = 0
KTAS 112008Z 17015KT 34/12 A3008 RMK A01 T03370119  RH  027%=      5-min Rain = 0
KTAS 112009Z 16014KT 34/12 A3007 RMK A01 T03350117  RH  027%=      5-min Rain = 0
KTAS 112010Z 16013KT 33/12 A3007 RMK A01 T03310117  RH  027%=      5-min Rain = 0
KTAS 112011Z 17011KT 33/12 A3007 RMK A01 T03280116  RH  028%=      5-min Rain = 0
KTAS 112012Z 17015KT 33/12 A3007 RMK A01 T03270116  RH  028%=      5-min Rain = 0
KTAS 112013Z 17014KT 33/12 A3007 RMK A01 T03250115  RH  028%=      5-min Rain = 0
KTAS 112014Z 17012KT 32/12 A3007 RMK A01 T03240115  RH  028%=      5-min Rain = 0
KTAS 112015Z 16014KT 33/12 A3007 RMK A01 T03250116  RH  028%=      5-min Rain = 0
KTAS 112016Z 16015KT 32/12 A3007 RMK A01 T03240119  RH  029%=      5-min Rain = 0
KTAS 112017Z 16013G18KT 32/12 A3007 RMK A01 T03230119  RH  029%=      5-min Rain = 0
KTAS 112018Z 16014KT 32/12 A3007 RMK A01 T03230119  RH  029%=      5-min Rain = 0
KTAS 112019Z 16013KT 32/12 A3007 RMK A01 T03220120  RH  029%=      5-min Rain = 0
KTAS 112020Z 16015KT 32/12 A3007 RMK A01 T03230119  RH  029%=      5-min Rain = 0
KTAS 112021Z 15015KT 32/12 A3007 RMK A01 T03240119  RH  029%=      5-min Rain = 0
KTAS 112022Z 17015KT 32/12 A3007 RMK A01 T03230118  RH  028%=      5-min Rain = 0
KTAS 112023Z 17014KT 32/12 A3007 RMK A01 T03230118  RH  029%=      5-min Rain = 0
KTAS 112024Z 18013KT 32/12 A3007 RMK A01 T03220117  RH  029%=      5-min Rain = 0
KTAS 112025Z 18012KT 32/12 A3007 RMK A01 T03210118  RH  029%=      5-min Rain = 0
KTAS 112026Z 20011KT 32/12 A3007 RMK A01 T03230119  RH  029%=      5-min Rain = 0
KTAS 112027Z 18014KT 33/12 A3007 RMK A01 T03270120  RH  028%=      5-min Rain = 0
KTAS 112028Z 18013KT 33/12 A3007 RMK A01 T03300121  RH  028%=      5-min Rain = 0
KTAS 112029Z 18015G20KT 33/12 A3007 RMK A01 T03310123  RH  028%=      5-min Rain = 0
KTAS 112030Z 18016G21KT 33/12 A3007 RMK A01 T03300123  RH  028%=      5-min Rain = 0
KTAS 112031Z 18012KT 33/12 A3007 RMK A01 T03270124  RH  029%=      5-min Rain = 0
KTAS 112032Z 18015KT 33/12 A3007 RMK A01 T03300123  RH  028%=      5-min Rain = 0
KTAS 112033Z 19011KT 33/12 A3007 RMK A01 T03290123  RH  029%=      5-min Rain = 0
KTAS 112034Z 19010G17KT 33/12 A3007 RMK A01 T03280124  RH  029%=      5-min Rain = 0
KTAS 112035Z 17015KT 33/12 A3007 RMK A01 T03310123  RH  028%=      5-min Rain = 0
KTAS 112036Z 17015KT 33/12 A3007 RMK A01 T03340121  RH  027%=      5-min Rain = 0
KTAS 112037Z 17011KT 33/12 A3006 RMK A01 T03320122  RH  028%=      5-min Rain = 0
KTAS 112038Z 16012KT 34/12 A3006 RMK A01 T03380122  RH  027%=      5-min Rain = 0
KTAS 112039Z 18013KT 34/12 A3006 RMK A01 T03400122  RH  027%=      5-min Rain = 0
KTAS 112040Z 18012KT 34/12 A3006 RMK A01 T03390122  RH  027%=      5-min Rain = 0
KTAS 112041Z 17011KT 34/12 A3006 RMK A01 T03410122  RH  027%=      5-min Rain = 0
KTAS 112042Z 15014KT 34/12 A3006 RMK A01 T03430122  RH  026%=      5-min Rain = 0
KTAS 112043Z 16016KT 34/12 A3006 RMK A01 T03430122  RH  026%=      5-min Rain = 0
KTAS 112044Z 16012KT 34/12 A3006 RMK A01 T03390122  RH  027%=      5-min Rain = 0
KTAS 112045Z 15016G21KT 34/12 A3006 RMK A01 T03410123  RH  027%=      5-min Rain = 0
KTAS 112046Z 15016G21KT 34/12 A3006 RMK A01 T03430122  RH  026%=      5-min Rain = 0
KTAS 112047Z 15014G19KT 34/12 A3006 RMK A01 T03430122  RH  026%=      5-min Rain = 0
KTAS 112048Z 15014KT 34/12 A3006 RMK A01 T03430121  RH  026%=      5-min Rain = 0
KTAS 112049Z 16013KT 34/12 A3006 RMK A01 T03420122  RH  026%=      5-min Rain = 0
KTAS 112050Z 15014KT 35/12 A3006 RMK A01 T03480123  RH  026%=      5-min Rain = 0
KTAS 112051Z 16013KT 35/12 A3006 RMK A01 T03510123  RH  025%=      5-min Rain = 0
KTAS 112052Z 17012KT 35/12 A3006 RMK A01 T03520123  RH  025%=      5-min Rain = 0
KTAS 112053Z 18012KT 35/12 A3006 RMK A01 T03540121  RH  025%=      5-min Rain = 0
KTAS 112054Z 17015KT 36/12 A3006 RMK A01 T03550120  RH  024%=      5-min Rain = 0
KTAS 112055Z 18015KT 35/12 A3006 RMK A01 T03520120  RH  025%=      5-min Rain = 0
KTAS 112056Z 16013G19KT 35/12 A3005 RMK A01 T03500120  RH  025%=      5-min Rain = 0
KTAS 112057Z 16015KT 35/12 A3006 RMK A01 T03510120  RH  025%=      5-min Rain = 0
KTAS 112058Z 17017KT 35/12 A3005 RMK A01 T03450120  RH  026%=      5-min Rain = 0
KTAS 112059Z 17018KT 34/12 A3005 RMK A01 T03360120  RH  027%=      5-min Rain = 0
KTAS 112100Z 17015KT 34/12 A3005 RMK A01 T03350121  RH  027%=      5-min Rain = 0
KTAS 112101Z 18015KT 34/12 A3005 RMK A01 T03350121  RH  027%=      5-min Rain = 0
KTAS 112102Z 18014KT 33/12 A3005 RMK A01 T03330119  RH  027%=      5-min Rain = 0
KTAS 112103Z 18011KT 33/12 A3005 RMK A01 T03300120  RH  028%=      5-min Rain = 0
KTAS 112104Z 17011KT 33/12 A3005 RMK A01 T03290119  RH  028%=      5-min Rain = 0
KTAS 112105Z 18015G20KT 33/12 A3005 RMK A01 T03290118  RH  028%=      5-min Rain = 0
KTAS 112106Z 17014KT 33/12 A3005 RMK A01 T03310119  RH  027%=      5-min Rain = 0
KTAS 112107Z 15014KT 34/12 A3005 RMK A01 T03400120  RH  026%=      5-min Rain = 0
KTAS 112108Z 15013KT 35/12 A3005 RMK A01 T03460121  RH  026%=      5-min Rain = 0
KTAS 112109Z 15010KT 35/12 A3005 RMK A01 T03490121  RH  025%=      5-min Rain = 0
KTAS 112110Z 15011KT 35/12 A3005 RMK A01 T03490120  RH  025%=      5-min Rain = 0
KTAS 112111Z 15015KT 34/12 A3005 RMK A01 T03430121  RH  026%=      5-min Rain = 0
KTAS 112112Z 15014KT 34/12 A3005 RMK A01 T03400123  RH  027%=      5-min Rain = 0
KTAS 112113Z 16017KT 35/12 A3005 RMK A01 T03460123  RH  026%=      5-min Rain = 0
KTAS 112114Z 17013G20KT 35/12 A3004 RMK A01 T03470123  RH  026%=      5-min Rain = 0
KTAS 112115Z 15014KT 35/12 A3004 RMK A01 T03480122  RH  026%=      5-min Rain = 0
KTAS 112116Z 15013KT 35/12 A3004 RMK A01 T03470122  RH  026%=      5-min Rain = 0
KTAS 112117Z 16011KT 35/12 A3004 RMK A01 T03450122  RH  026%=      5-min Rain = 0
KTAS 112118Z 17012KT 35/12 A3004 RMK A01 T03480120  RH  025%=      5-min Rain = 0
KTAS 112119Z 17012KT 35/12 A3004 RMK A01 T03460120  RH  025%=      5-min Rain = 0
KTAS 112120Z 16016G22KT 35/12 A3004 RMK A01 T03450122  RH  026%=      5-min Rain = 0
KTAS 112121Z 16019KT 35/12 A3004 RMK A01 T03450121  RH  026%=      5-min Rain = 0
KTAS 112122Z 16017KT 34/12 A3004 RMK A01 T03420121  RH  026%=      5-min Rain = 0
KTAS 112123Z 16014KT 34/12 A3004 RMK A01 T03380121  RH  027%=      5-min Rain = 0
KTAS 112124Z 16011KT 34/12 A3004 RMK A01 T03350120  RH  027%=      5-min Rain = 0
KTAS 112125Z 16014G20KT 33/12 A3004 RMK A01 T03330121  RH  028%=      5-min Rain = 0
KTAS 112126Z 15015KT 34/12 A3004 RMK A01 T03370121  RH  027%=      5-min Rain = 0
KTAS 112127Z 14014KT 34/12 A3004 RMK A01 T03400122  RH  027%=      5-min Rain = 0
KTAS 112128Z 15015G20KT 34/12 A3004 RMK A01 T03430122  RH  026%=      5-min Rain = 0
KTAS 112129Z 16016KT 35/12 A3004 RMK A01 T03460121  RH  026%=      5-min Rain = 0
KTAS 112130Z 16015KT 35/12 A3004 RMK A01 T03450121  RH  026%=      5-min Rain = 0
KTAS 112131Z 16016KT 35/12 A3004 RMK A01 T03480121  RH  025%=      5-min Rain = 0
KTAS 112132Z 16016G22KT 35/12 A3004 RMK A01 T03480121  RH  025%=      5-min Rain = 0
KTAS 112133Z 16017KT 35/12 A3004 RMK A01 T03460120  RH  025%=      5-min Rain = 0
KTAS 112134Z 17014KT 34/12 A3003 RMK A01 T03430121  RH  026%=      5-min Rain = 0
KTAS 112135Z 16011KT 34/12 A3003 RMK A01 T03440122  RH  026%=      5-min Rain = 0
KTAS 112136Z 15015KT 35/12 A3004 RMK A01 T03470121  RH  025%=      5-min Rain = 0
KTAS 112137Z 16014G20KT 34/12 A3004 RMK A01 T03420120  RH  026%=      5-min Rain = 0
KTAS 112138Z 15011KT 34/12 A3003 RMK A01 T03380120  RH  027%=      5-min Rain = 0
KTAS 112139Z 15014KT 34/12 A3003 RMK A01 T03390120  RH  027%=      5-min Rain = 0
KTAS 112140Z 15015KT 34/12 A3003 RMK A01 T03430121  RH  026%=      5-min Rain = 0
KTAS 112141Z 15014KT 35/12 A3003 RMK A01 T03460121  RH  026%=      5-min Rain = 0
KTAS 112142Z 14015KT 35/12 A3003 RMK A01 T03490121  RH  025%=      5-min Rain = 0
KTAS 112143Z 15014KT 35/12 A3003 RMK A01 T03520121  RH  025%=      5-min Rain = 0
KTAS 112144Z 15014KT 35/12 A3003 RMK A01 T03510121  RH  025%=      5-min Rain = 0
KTAS 112145Z 15014G20KT 35/12 A3003 RMK A01 T03500121  RH  025%=      5-min Rain = 0
KTAS 112146Z 17015KT 35/12 A3003 RMK A01 T03470119  RH  025%=      5-min Rain = 0
KTAS 112147Z 18013KT 34/12 A3003 RMK A01 T03430119  RH  026%=      5-min Rain = 0
KTAS 112148Z 18014G19KT 35/12 A3003 RMK A01 T03480119  RH  025%=      5-min Rain = 0
KTAS 112149Z 18015KT 35/12 A3003 RMK A01 T03460118  RH  025%=      5-min Rain = 0
KTAS 112150Z 17014KT 34/12 A3003 RMK A01 T03400117  RH  026%=      5-min Rain = 0
KTAS 112151Z 17011KT 34/12 A3003 RMK A01 T03370117  RH  026%=      5-min Rain = 0
KTAS 112152Z 18014KT 34/12 A3003 RMK A01 T03360118  RH  027%=      5-min Rain = 0
KTAS 112153Z 17013KT 34/12 A3003 RMK A01 T03350117  RH  026%=      5-min Rain = 0
KTAS 112154Z 19011KT 34/12 A3003 RMK A01 T03370118  RH  026%=      5-min Rain = 0
KTAS 112155Z 18013KT 34/12 A3003 RMK A01 T03420118  RH  026%=      5-min Rain = 0
KTAS 112156Z 18012KT 34/12 A3003 RMK A01 T03440119  RH  025%=      5-min Rain = 0
KTAS 112157Z 16014KT 35/12 A3003 RMK A01 T03480119  RH  025%=      5-min Rain = 0
KTAS 112158Z 16014KT 35/12 A3003 RMK A01 T03450119  RH  026%=      5-min Rain = 0
KTAS 112159Z 16014KT 34/12 A3003 RMK A01 T03390119  RH  026%=      5-min Rain = 0
KTAS 112200Z 15013KT 34/12 A3003 RMK A01 T03360120  RH  027%=      5-min Rain = 0
KTAS 112201Z 16014KT 34/12 A3003 RMK A01 T03360119  RH  027%=      5-min Rain = 0
KTAS 112202Z 18014KT 34/12 A3003 RMK A01 T03360118  RH  027%=      5-min Rain = 0
KTAS 112203Z 18010KT 34/12 A3003 RMK A01 T03410119  RH  026%=      5-min Rain = 0
KTAS 112204Z 18013KT 35/12 A3003 RMK A01 T03470117  RH  025%=      5-min Rain = 0
KTAS 112205Z 17014KT 34/12 A3003 RMK A01 T03440119  RH  026%=      5-min Rain = 0
KTAS 112206Z 17012KT 35/12 A3003 RMK A01 T03460119  RH  025%=      5-min Rain = 0
KTAS 112207Z 17013KT 34/12 A3003 RMK A01 T03410118  RH  026%=      5-min Rain = 0
KTAS 112208Z 16012KT 34/12 A3003 RMK A01 T03360117  RH  026%=      5-min Rain = 0
KTAS 112209Z 17016KT 33/12 A3003 RMK A01 T03340118  RH  027%=      5-min Rain = 0
KTAS 112210Z 17017KT 33/12 A3003 RMK A01 T03320118  RH  027%=      5-min Rain = 0
KTAS 112211Z 16014KT 33/12 A3003 RMK A01 T03310118  RH  027%=      5-min Rain = 0
KTAS 112212Z 17014KT 33/12 A3003 RMK A01 T03310118  RH  027%=      5-min Rain = 0
KTAS 112213Z 17016KT 33/12 A3003 RMK A01 T03340117  RH  027%=      5-min Rain = 0
KTAS 112214Z 18013KT 34/12 A3003 RMK A01 T03370117  RH  026%=      5-min Rain = 0
KTAS 112215Z 18012KT 34/12 A3003 RMK A01 T03410118  RH  026%=      5-min Rain = 0
KTAS 112216Z 17012KT 35/12 A3002 RMK A01 T03470119  RH  025%=      5-min Rain = 0
KTAS 112217Z 16015KT 35/12 A3003 RMK A01 T03520116  RH  024%=      5-min Rain = 0
KTAS 112218Z 16012KT 35/11 A3003 RMK A01 T03460114  RH  025%=      5-min Rain = 0
KTAS 112219Z 16012KT 34/12 A3002 RMK A01 T03400115  RH  026%=      5-min Rain = 0
KTAS 112220Z 17013KT 34/11 A3003 RMK A01 T03350114  RH  026%=      5-min Rain = 0
KTAS 112221Z 17011KT 33/12 A3002 RMK A01 T03310116  RH  027%=      5-min Rain = 0
KTAS 112222Z 17010KT 33/12 A3002 RMK A01 T03300117  RH  027%=      5-min Rain = 0
KTAS 112223Z 19009KT 33/12 A3002 RMK A01 T03290117  RH  028%=      5-min Rain = 0
KTAS 112224Z 17012G18KT 33/12 A3002 RMK A01 T03280117  RH  028%=      5-min Rain = 0
KTAS 112225Z 17015KT 33/12 A3002 RMK A01 T03290119  RH  028%=      5-min Rain = 0
KTAS 112226Z 17015G20KT 33/12 A3002 RMK A01 T03280119  RH  028%=      5-min Rain = 0
KTAS 112227Z 17012KT 33/12 A3002 RMK A01 T03260119  RH  028%=      5-min Rain = 0
KTAS 112228Z 16012KT 33/12 A3002 RMK A01 T03250119  RH  028%=      5-min Rain = 0
KTAS 112229Z 16011KT 33/12 A3002 RMK A01 T03260119  RH  028%=      5-min Rain = 0
KTAS 112230Z 17012KT 33/12 A3002 RMK A01 T03260119  RH  028%=      5-min Rain = 0
KTAS 112231Z 17013G18KT 33/12 A3002 RMK A01 T03270119  RH  028%=      5-min Rain = 0
KTAS 112232Z 17013KT 33/12 A3003 RMK A01 T03270118  RH  028%=      5-min Rain = 0
KTAS 112233Z 18011KT 33/12 A3003 RMK A01 T03260117  RH  028%=      5-min Rain = 0
KTAS 112234Z 16009KT 33/12 A3002 RMK A01 T03250118  RH  028%=      5-min Rain = 0
KTAS 112235Z 16009KT 33/12 A3003 RMK A01 T03260118  RH  028%=      5-min Rain = 0
KTAS 112236Z 15010G15KT 33/12 A3003 RMK A01 T03280118  RH  028%=      5-min Rain = 0
KTAS 112237Z 16012KT 33/12 A3003 RMK A01 T03290118  RH  028%=      5-min Rain = 0
KTAS 112238Z 15008KT 33/12 A3002 RMK A01 T03290118  RH  028%=      5-min Rain = 0
KTAS 112239Z 16008KT 33/12 A3002 RMK A01 T03280118  RH  028%=      5-min Rain = 0
KTAS 112240Z 17010KT 33/12 A3002 RMK A01 T03300119  RH  028%=      5-min Rain = 0
KTAS 112241Z 16012KT 33/12 A3002 RMK A01 T03310119  RH  028%=      5-min Rain = 0
KTAS 112242Z 16012KT 33/12 A3002 RMK A01 T03300120  RH  028%=      5-min Rain = 0
KTAS 112243Z 15012KT 33/12 A3002 RMK A01 T03340121  RH  027%=      5-min Rain = 0
KTAS 112244Z 15014KT 34/12 A3002 RMK A01 T03410121  RH  026%=      5-min Rain = 0
KTAS 112245Z 16015KT 34/12 A3002 RMK A01 T03440120  RH  026%=      5-min Rain = 0
KTAS 112246Z 16012KT 34/12 A3002 RMK A01 T03430120  RH  026%=      5-min Rain = 0
KTAS 112247Z 17012KT 34/12 A3002 RMK A01 T03430119  RH  026%=      5-min Rain = 0
KTAS 112248Z 16011KT 34/12 A3002 RMK A01 T03400119  RH  026%=      5-min Rain = 0
KTAS 112249Z 16012KT 34/12 A3002 RMK A01 T03390118  RH  026%=      5-min Rain = 0
KTAS 112250Z 16013KT 34/12 A3002 RMK A01 T03360118  RH  027%=      5-min Rain = 0
KTAS 112251Z 17013KT 34/12 A3002 RMK A01 T03350119  RH  027%=      5-min Rain = 0
KTAS 112252Z 18013KT 34/12 A3002 RMK A01 T03350120  RH  027%=      5-min Rain = 0
KTAS 112253Z 17015KT 34/12 A3002 RMK A01 T03370119  RH  027%=      5-min Rain = 0
KTAS 112254Z 17011KT 34/12 A3002 RMK A01 T03350119  RH  027%=      5-min Rain = 0
KTAS 112255Z 16008KT 33/12 A3002 RMK A01 T03340119  RH  027%=      5-min Rain = 0
KTAS 112256Z 15009KT 33/12 A3002 RMK A01 T03340119  RH  027%=      5-min Rain = 0
KTAS 112257Z 14012KT 34/12 A3002 RMK A01 T03360116  RH  026%=      5-min Rain = 0
KTAS 112258Z 16016KT 34/12 A3002 RMK A01 T03380119  RH  027%=      5-min Rain = 0
KTAS 112259Z 17014KT 34/12 A3002 RMK A01 T03370121  RH  027%=      5-min Rain = 0
KTAS 112300Z 17013KT 34/12 A3002 RMK A01 T03380121  RH  027%=      5-min Rain = 0
KTAS 112301Z 16015KT 34/12 A3002 RMK A01 T03380122  RH  027%=      5-min Rain = 0
KTAS 112302Z 16015KT 34/12 A3002 RMK A01 T03370121  RH  027%=      5-min Rain = 0
KTAS 112303Z 16016KT 33/12 A3002 RMK A01 T03340122  RH  027%=      5-min Rain = 0
KTAS 112304Z 16017KT 33/12 A3002 RMK A01 T03330122  RH  028%=      5-min Rain = 0
KTAS 112305Z 18013KT 33/12 A3002 RMK A01 T03340123  RH  028%=      5-min Rain = 0
KTAS 112306Z 17013KT 33/12 A3002 RMK A01 T03340122  RH  028%=      5-min Rain = 0
KTAS 112307Z 17009KT 33/12 A3002 RMK A01 T03330122  RH  028%=      5-min Rain = 0
KTAS 112308Z 16012KT 33/12 A3002 RMK A01 T03340122  RH  028%=      5-min Rain = 0
KTAS 112309Z 16013KT 33/12 A3002 RMK A01 T03320121  RH  028%=      5-min Rain = 0
KTAS 112310Z 17014KT 33/12 A3002 RMK A01 T03310120  RH  028%=      5-min Rain = 0
KTAS 112311Z 16012KT 33/12 A3002 RMK A01 T03290119  RH  028%=      5-min Rain = 0
KTAS 112312Z 16014KT 33/12 A3002 RMK A01 T03290119  RH  028%=      5-min Rain = 0
KTAS 112313Z 16013KT 33/12 A3002 RMK A01 T03290119  RH  028%=      5-min Rain = 0
KTAS 112314Z 17012KT 33/12 A3002 RMK A01 T03290120  RH  028%=      5-min Rain = 0
KTAS 112315Z 15014KT 33/12 A3002 RMK A01 T03280120  RH  028%=      5-min Rain = 0
KTAS 112316Z 15012KT 33/12 A3002 RMK A01 T03280120  RH  028%=      5-min Rain = 0
KTAS 112317Z 16012KT 33/12 A3002 RMK A01 T03280120  RH  028%=      5-min Rain = 0
KTAS 112318Z 15013KT 33/12 A3002 RMK A01 T03270120  RH  028%=      5-min Rain = 0
KTAS 112319Z 16013KT 33/12 A3002 RMK A01 T03260120  RH  028%=      5-min Rain = 0
KTAS 112320Z 16012KT 33/12 A3002 RMK A01 T03270121  RH  028%=      5-min Rain = 0
KTAS 112321Z 16010KT 33/12 A3002 RMK A01 T03290121  RH  028%=      5-min Rain = 0
KTAS 112322Z 15013KT 33/12 A3002 RMK A01 T03300122  RH  028%=      5-min Rain = 0
KTAS 112323Z 16013KT 33/12 A3002 RMK A01 T03290122  RH  028%=      5-min Rain = 0
KTAS 112324Z 16012KT 33/12 A3002 RMK A01 T03290123  RH  029%=      5-min Rain = 0
KTAS 112325Z 16010KT 33/12 A3002 RMK A01 T03310123  RH  028%=      5-min Rain = 0
KTAS 112326Z 15012KT 33/12 A3002 RMK A01 T03340123  RH  028%=      5-min Rain = 0
KTAS 112327Z 15013KT 34/12 A3001 RMK A01 T03350122  RH  027%=      5-min Rain = 0
KTAS 112328Z 15015KT 33/12 A3001 RMK A01 T03340122  RH  028%=      5-min Rain = 0
KTAS 112329Z 15011KT 33/12 A3001 RMK A01 T03310123  RH  028%=      5-min Rain = 0
KTAS 112330Z 17010KT 33/12 A3001 RMK A01 T03300123  RH  028%=      5-min Rain = 0
KTAS 112331Z 16011KT 33/12 A3001 RMK A01 T03300123  RH  029%=      5-min Rain = 0
KTAS 112332Z 15014KT 33/12 A3001 RMK A01 T03290123  RH  028%=      5-min Rain = 0
KTAS 112333Z 15015KT 33/12 A3001 RMK A01 T03300122  RH  028%=      5-min Rain = 0
KTAS 112334Z 14016KT 33/12 A3001 RMK A01 T03300122  RH  028%=      5-min Rain = 0
KTAS 112335Z 15013KT 33/12 A3001 RMK A01 T03290122  RH  028%=      5-min Rain = 0
KTAS 112336Z 15014KT 33/12 A3001 RMK A01 T03280123  RH  029%=      5-min Rain = 0
KTAS 112337Z 14013KT 33/12 A3001 RMK A01 T03270123  RH  029%=      5-min Rain = 0
KTAS 112338Z 15016KT 33/12 A3001 RMK A01 T03260124  RH  029%=      5-min Rain = 0
KTAS 112339Z 15013KT 33/12 A3001 RMK A01 T03260124  RH  029%=      5-min Rain = 0
KTAS 112340Z 15013KT 33/12 A3001 RMK A01 T03260123  RH  029%=      5-min Rain = 0
KTAS 112341Z 15015KT 33/12 A3001 RMK A01 T03250123  RH  029%=      5-min Rain = 0
KTAS 112342Z 15012KT 32/12 A3001 RMK A01 T03230124  RH  030%=      5-min Rain = 0
KTAS 112343Z 16014KT 32/12 A3001 RMK A01 T03230124  RH  030%=      5-min Rain = 0
KTAS 112344Z 17014G19KT 32/12 A3001 RMK A01 T03220124  RH  030%=      5-min Rain = 0
KTAS 112345Z 16013KT 32/13 A3001 RMK A01 T03220125  RH  030%=      5-min Rain = 0
KTAS 112346Z 15015KT 32/13 A3001 RMK A01 T03220125  RH  030%=      5-min Rain = 0
KTAS 112347Z 16014KT 32/12 A3001 RMK A01 T03220124  RH  030%=      5-min Rain = 0
KTAS 112348Z 16012KT 32/13 A3001 RMK A01 T03220125  RH  030%=      5-min Rain = 0
KTAS 112349Z 16012KT 32/13 A3001 RMK A01 T03220125  RH  030%=      5-min Rain = 0
KTAS 112350Z 16012KT 32/12 A3001 RMK A01 T03220124  RH  030%=      5-min Rain = 0
KTAS 112351Z 15012KT 32/12 A3001 RMK A01 T03220124  RH  030%=      5-min Rain = 0
KTAS 112352Z 15013KT 32/12 A3002 RMK A01 T03220124  RH  030%=      5-min Rain = 0
KTAS 112353Z 17012KT 32/13 A3002 RMK A01 T03210125  RH  030%=      5-min Rain = 0
KTAS 112354Z 16011KT 32/13 A3002 RMK A01 T03220125  RH  030%=      5-min Rain = 0
KTAS 112355Z 16011KT 32/13 A3002 RMK A01 T03220125  RH  030%=      5-min Rain = 0
KTAS 112356Z 16011KT 32/12 A3002 RMK A01 T03220124  RH  030%=      5-min Rain = 0
KTAS 112357Z 17011KT 32/12 A3002 RMK A01 T03220124  RH  030%=      5-min Rain = 0
KTAS 112358Z 17013KT 32/12 A3002 RMK A01 T03210123  RH  030%=      5-min Rain = 0
KTAS 112359Z 16010KT 32/12 A3002 RMK A01 T03210124  RH  030%=      5-min Rain = 0
KTAS 120000Z 18010KT 32/12 A3002 RMK A01 T03210124  RH  030%=      5-min Rain = 0
KTAS 120001Z 18012KT 32/12 A3002 RMK A01 T03210124  RH  030%=      5-min Rain = 0
KTAS 120002Z 18012KT 32/12 A3001 RMK A01 T03210124  RH  030%=      5-min Rain = 0
KTAS 120003Z 16008KT 32/12 A3002 RMK A01 T03210124  RH  030%=      5-min Rain = 0
KTAS 120004Z 16010KT 32/13 A3001 RMK A01 T03220125  RH  030%=      5-min Rain = 0
KTAS 120005Z 16011KT 32/13 A3002 RMK A01 T03220125  RH  030%=      5-min Rain = 0
KTAS 120006Z 16009KT 32/12 A3002 RMK A01 T03220124  RH  030%=      5-min Rain = 0
KTAS 120007Z 16008KT 32/12 A3002 RMK A01 T03220124  RH  030%=      5-min Rain = 0
KTAS 120008Z 15010KT 32/12 A3002 RMK A01 T03220123  RH  030%=      5-min Rain = 0
KTAS 120009Z 16010KT 32/12 A3002 RMK A01 T03220123  RH  030%=      5-min Rain = 0
KTAS 120010Z 15011KT 32/12 A3002 RMK A01 T03220122  RH  030%=      5-min Rain = 0
KTAS 120011Z 15010KT 32/12 A3001 RMK A01 T03220123  RH  030%=      5-min Rain = 0
KTAS 120012Z 15011KT 32/12 A3001 RMK A01 T03210123  RH  030%=      5-min Rain = 0
KTAS 120013Z 15012KT 32/12 A3001 RMK A01 T03210123  RH  030%=      5-min Rain = 0
KTAS 120014Z 15009KT 32/12 A3002 RMK A01 T03210123  RH  030%=      5-min Rain = 0
KTAS 120015Z 15011KT 32/12 A3001 RMK A01 T03220124  RH  030%=      5-min Rain = 0
KTAS 120016Z 16010KT 32/12 A3002 RMK A01 T03220123  RH  030%=      5-min Rain = 0
KTAS 120017Z 15010KT 32/12 A3002 RMK A01 T03220123  RH  030%=      5-min Rain = 0
KTAS 120018Z 15011KT 32/12 A3002 RMK A01 T03220123  RH  030%=      5-min Rain = 0
KTAS 120019Z 15009KT 32/12 A3002 RMK A01 T03220123  RH  030%=      5-min Rain = 0
KTAS 120020Z 14011KT 32/12 A3002 RMK A01 T03220122  RH  029%=      5-min Rain = 0
KTAS 120021Z 15009KT 32/12 A3002 RMK A01 T03220122  RH  029%=      5-min Rain = 0
KTAS 120022Z 15010KT 32/12 A3002 RMK A01 T03220121  RH  029%=      5-min Rain = 0
KTAS 120023Z 15008KT 32/12 A3002 RMK A01 T03220121  RH  029%=      5-min Rain = 0
KTAS 120024Z 16009KT 32/12 A3002 RMK A01 T03230122  RH  029%=      5-min Rain = 0
KTAS 120025Z 16009KT 32/12 A3002 RMK A01 T03230122  RH  029%=      5-min Rain = 0
KTAS 120026Z 16009KT 32/12 A3002 RMK A01 T03230122  RH  029%=      5-min Rain = 0
KTAS 120027Z 16009KT 32/12 A3002 RMK A01 T03230122  RH  029%=      5-min Rain = 0
KTAS 120028Z 16007KT 32/12 A3002 RMK A01 T03230122  RH  029%=      5-min Rain = 0
KTAS 120029Z 17007KT 32/12 A3002 RMK A01 T03240123  RH  029%=      5-min Rain = 0
KTAS 120030Z 16009KT 33/12 A3002 RMK A01 T03250123  RH  029%=      5-min Rain = 0
KTAS 120031Z 16009KT 33/12 A3002 RMK A01 T03250124  RH  029%=      5-min Rain = 0
KTAS 120032Z 16009KT 33/12 A3002 RMK A01 T03250124  RH  029%=      5-min Rain = 0
KTAS 120033Z 15009KT 33/13 A3002 RMK A01 T03260125  RH  029%=      5-min Rain = 0
KTAS 120034Z 14009KT 33/12 A3002 RMK A01 T03280124  RH  029%=      5-min Rain = 0
KTAS 120035Z 15012KT 33/12 A3002 RMK A01 T03300123  RH  028%=      5-min Rain = 0
KTAS 120036Z 15011KT 33/12 A3002 RMK A01 T03310122  RH  028%=      5-min Rain = 0
KTAS 120037Z 14011KT 33/12 A3002 RMK A01 T03310121  RH  028%=      5-min Rain = 0
KTAS 120038Z 15011KT 33/12 A3002 RMK A01 T03320122  RH  028%=      5-min Rain = 0
KTAS 120039Z 15013KT 33/12 A3002 RMK A01 T03320120  RH  028%=      5-min Rain = 0
KTAS 120040Z 16013KT 33/12 A3002 RMK A01 T03310121  RH  028%=      5-min Rain = 0
KTAS 120041Z 16013KT 33/12 A3002 RMK A01 T03300120  RH  028%=      5-min Rain = 0
KTAS 120042Z 15013KT 33/12 A3002 RMK A01 T03300120  RH  028%=      5-min Rain = 0
KTAS 120043Z 15013KT 33/12 A3002 RMK A01 T03290120  RH  028%=      5-min Rain = 0
KTAS 120044Z 15012KT 33/12 A3002 RMK A01 T03290120  RH  028%=      5-min Rain = 0
KTAS 120045Z 16012KT 33/12 A3002 RMK A01 T03300120  RH  028%=      5-min Rain = 0
KTAS 120046Z 15011KT 33/12 A3002 RMK A01 T03300120  RH  028%=      5-min Rain = 0
KTAS 120047Z 14018G29KT 33/13 A3002 RMK A01 T03300126  RH  029%=      5-min Rain = 0
KTAS 120048Z 12025G31KT 32/14 A3002 RMK A01 T03160142  RH  035%=      5-min Rain = 0
KTAS 120049Z 12023G30KT 30/14 A3002 RMK A01 T03030141  RH  037%=      5-min Rain = 0
KTAS 120050Z 12022G27KT 30/14 A3002 RMK A01 T03000141  RH  038%=      5-min Rain = 0
KTAS 120051Z 12020KT 30/14 A3003 RMK A01 T02980142  RH  038%=      5-min Rain = 0
KTAS 120052Z 12021KT 30/14 A3003 RMK A01 T02980139  RH  038%=      5-min Rain = 0
KTAS 120053Z 12019KT 30/14 A3002 RMK A01 T03000139  RH  037%=      5-min Rain = 0
KTAS 120054Z 12018G23KT 30/14 A3003 RMK A01 T02980139  RH  038%=      5-min Rain = 0
KTAS 120055Z 12017G22KT 30/14 A3003 RMK A01 T02990136  RH  037%=      5-min Rain = 0
KTAS 120056Z 12015KT 30/14 A3003 RMK A01 T03010137  RH  037%=      5-min Rain = 0
KTAS 120057Z 11014KT 30/14 A3003 RMK A01 T02990139  RH  038%=      5-min Rain = 0
KTAS 120058Z 10014KT 30/14 A3003 RMK A01 T02980138  RH  037%=      5-min Rain = 0
KTAS 120059Z 11013KT 30/14 A3003 RMK A01 T02980138  RH  038%=      5-min Rain = 0
KTAS 120100Z 11012KT 30/14 A3003 RMK A01 T02970140  RH  038%=      5-min Rain = 0
KTAS 120101Z 11013KT 30/14 A3003 RMK A01 T02950141  RH  039%=      5-min Rain = 0
KTAS 120102Z 10011KT 29/14 A3003 RMK A01 T02930142  RH  040%=      5-min Rain = 0
KTAS 120103Z 09012KT 29/14 A3003 RMK A01 T02930142  RH  040%=      5-min Rain = 0
KTAS 120104Z 09012KT 29/14 A3003 RMK A01 T02920142  RH  040%=      5-min Rain = 0
KTAS 120105Z 09012KT 29/14 A3003 RMK A01 T02910142  RH  040%=      5-min Rain = 0
KTAS 120106Z 10010KT 29/14 A3003 RMK A01 T02900142  RH  040%=      5-min Rain = 0
KTAS 120107Z 09009KT 29/14 A3003 RMK A01 T02910142  RH  040%=      5-min Rain = 0
KTAS 120108Z 09008KT 29/14 A3003 RMK A01 T02930140  RH  039%=      5-min Rain = 0
KTAS 120109Z 09008KT 29/14 A3003 RMK A01 T02940139  RH  039%=      5-min Rain = 0
KTAS 120110Z 10007KT 30/14 A3003 RMK A01 T02950138  RH  038%=      5-min Rain = 0
KTAS 120111Z 11006KT 30/14 A3003 RMK A01 T02960137  RH  038%=      5-min Rain = 0
KTAS 120112Z 11006KT 30/14 A3003 RMK A01 T02970137  RH  038%=      5-min Rain = 0
KTAS 120113Z 12007KT 30/14 A3003 RMK A01 T02980136  RH  037%=      5-min Rain = 0
KTAS 120114Z 12006KT 30/14 A3003 RMK A01 T02990136  RH  037%=      5-min Rain = 0
KTAS 120115Z 12007KT 30/14 A3003 RMK A01 T03000136  RH  037%=      5-min Rain = 0
KTAS 120116Z 13008KT 30/13 A3003 RMK A01 T03010134  RH  036%=      5-min Rain = 0
KTAS 120117Z 13007KT 30/13 A3003 RMK A01 T03020134  RH  036%=      5-min Rain = 0
KTAS 120118Z 13007KT 30/13 A3003 RMK A01 T03030134  RH  036%=      5-min Rain = 0
KTAS 120119Z 12004KT 30/13 A3003 RMK A01 T03030134  RH  036%=      5-min Rain = 0
KTAS 120120Z 13008KT 30/13 A3003 RMK A01 T03030133  RH  035%=      5-min Rain = 0
KTAS 120121Z 13006KT 31/13 A3003 RMK A01 T03050132  RH  035%=      5-min Rain = 0
KTAS 120122Z 14007KT 31/13 A3003 RMK A01 T03050133  RH  035%=      5-min Rain = 0
KTAS 120123Z 13007KT 31/13 A3003 RMK A01 T03050132  RH  035%=      5-min Rain = 0
KTAS 120124Z 13008KT 31/13 A3003 RMK A01 T03060132  RH  035%=      5-min Rain = 0
KTAS 120125Z 13007KT 31/13 A3003 RMK A01 T03060132  RH  034%=      5-min Rain = 0
KTAS 120126Z 14008KT 31/13 A3003 RMK A01 T03060132  RH  035%=      5-min Rain = 0
KTAS 120127Z 14007KT 31/13 A3003 RMK A01 T03060133  RH  035%=      5-min Rain = 0
KTAS 120128Z 14006KT 31/13 A3003 RMK A01 T03060132  RH  035%=      5-min Rain = 0
KTAS 120129Z 15006KT 31/13 A3003 RMK A01 T03060133  RH  035%=      5-min Rain = 0
KTAS 120130Z 15006KT 31/13 A3003 RMK A01 T03050134  RH  035%=      5-min Rain = 0
KTAS 120131Z 15006KT 31/13 A3003 RMK A01 T03050134  RH  035%=      5-min Rain = 0
KTAS 120132Z 15006KT 31/13 A3003 RMK A01 T03050134  RH  035%=      5-min Rain = 0
KTAS 120133Z 15006KT 31/14 A3003 RMK A01 T03050135  RH  035%=      5-min Rain = 0
KTAS 120134Z 15005KT 31/14 A3003 RMK A01 T03050136  RH  036%=      5-min Rain = 0
KTAS 120135Z 16004KT 31/14 A3003 RMK A01 T03050136  RH  036%=      5-min Rain = 0
KTAS 120136Z 16005KT 30/14 A3003 RMK A01 T03040137  RH  036%=      5-min Rain = 0
KTAS 120137Z 16005KT 30/14 A3003 RMK A01 T03040137  RH  036%=      5-min Rain = 0
KTAS 120138Z 16005KT 30/14 A3003 RMK A01 T03040137  RH  036%=      5-min Rain = 0
KTAS 120139Z 17006KT 30/14 A3003 RMK A01 T03040136  RH  036%=      5-min Rain = 0
KTAS 120140Z 17006KT 30/13 A3003 RMK A01 T03040133  RH  035%=      5-min Rain = 0
KTAS 120141Z 16005KT 31/13 A3003 RMK A01 T03050133  RH  035%=      5-min Rain = 0
KTAS 120142Z 16006KT 31/13 A3003 RMK A01 T03050131  RH  034%=      5-min Rain = 0
KTAS 120143Z 16006KT 31/13 A3003 RMK A01 T03050129  RH  034%=      5-min Rain = 0
KTAS 120144Z 16006KT 31/13 A3003 RMK A01 T03060129  RH  034%=      5-min Rain = 0
KTAS 120145Z 17006KT 31/13 A3003 RMK A01 T03060128  RH  034%=      5-min Rain = 0
KTAS 120146Z 16006KT 31/13 A3003 RMK A01 T03060128  RH  034%=      5-min Rain = 0
KTAS 120147Z 16007KT 31/13 A3003 RMK A01 T03060127  RH  033%=      5-min Rain = 0
KTAS 120148Z 16007KT 31/13 A3003 RMK A01 T03060127  RH  033%=      5-min Rain = 0
KTAS 120149Z 16007KT 31/13 A3003 RMK A01 T03070126  RH  033%=      5-min Rain = 0
KTAS 120150Z 16007KT 31/13 A3003 RMK A01 T03070126  RH  033%=      5-min Rain = 0
KTAS 120151Z 16007KT 31/13 A3003 RMK A01 T03070126  RH  033%=      5-min Rain = 0
KTAS 120152Z 16007KT 31/13 A3003 RMK A01 T03070126  RH  033%=      5-min Rain = 0
KTAS 120153Z 16007KT 31/13 A3003 RMK A01 T03070126  RH  033%=      5-min Rain = 0
KTAS 120154Z 16007KT 31/13 A3003 RMK A01 T03060125  RH  033%=      5-min Rain = 0
KTAS 120155Z 16008KT 31/13 A3003 RMK A01 T03060125  RH  033%=      5-min Rain = 0
KTAS 120156Z 16007KT 31/13 A3003 RMK A01 T03070125  RH  033%=      5-min Rain = 0
KTAS 120157Z 16008KT 31/13 A3003 RMK A01 T03060125  RH  033%=      5-min Rain = 0
KTAS 120158Z 16009KT 31/13 A3003 RMK A01 T03060125  RH  033%=      5-min Rain = 0
KTAS 120159Z 16010KT 31/13 A3003 RMK A01 T03060125  RH  033%=      5-min Rain = 0
KTAS 120200Z 16008KT 31/13 A3003 RMK A01 T03070125  RH  033%=      5-min Rain = 0
KTAS 120201Z 16007KT 31/13 A3003 RMK A01 T03060125  RH  033%=      5-min Rain = 0
KTAS 120202Z 16007KT 31/13 A3003 RMK A01 T03060125  RH  033%=      5-min Rain = 0
KTAS 120203Z 16008KT 31/13 A3003 RMK A01 T03050125  RH  033%=      5-min Rain = 0
KTAS 120204Z 16009KT 31/13 A3003 RMK A01 T03050126  RH  033%=      5-min Rain = 0
KTAS 120205Z 16008KT 31/13 A3003 RMK A01 T03050126  RH  033%=      5-min Rain = 0
KTAS 120206Z 16009KT 31/13 A3003 RMK A01 T03050126  RH  033%=      5-min Rain = 0
KTAS 120207Z 16008KT 30/13 A3003 RMK A01 T03040126  RH  034%=      5-min Rain = 0
KTAS 120208Z 16008KT 30/13 A3003 RMK A01 T03040126  RH  034%=      5-min Rain = 0
KTAS 120209Z 16007KT 30/13 A3004 RMK A01 T03030126  RH  034%=      5-min Rain = 0
KTAS 120210Z 16007KT 30/13 A3004 RMK A01 T03020127  RH  034%=      5-min Rain = 0
KTAS 120211Z 16007KT 30/13 A3004 RMK A01 T03020127  RH  034%=      5-min Rain = 0
KTAS 120212Z 16007KT 30/13 A3004 RMK A01 T03010127  RH  034%=      5-min Rain = 0
KTAS 120213Z 16008KT 30/13 A3004 RMK A01 T03010127  RH  034%=      5-min Rain = 0
KTAS 120214Z 15006KT 30/13 A3004 RMK A01 T03010127  RH  034%=      5-min Rain = 0
KTAS 120215Z 16008KT 30/13 A3004 RMK A01 T03000127  RH  035%=      5-min Rain = 0
KTAS 120216Z 16007KT 30/13 A3004 RMK A01 T03000128  RH  035%=      5-min Rain = 0
KTAS 120217Z 16007KT 30/13 A3004 RMK A01 T03000128  RH  035%=      5-min Rain = 0
KTAS 120218Z 16007KT 30/13 A3004 RMK A01 T03000128  RH  035%=      5-min Rain = 0
KTAS 120219Z 17007KT 30/13 A3004 RMK A01 T03000128  RH  035%=      5-min Rain = 0
KTAS 120220Z 16006KT 30/13 A3004 RMK A01 T03000128  RH  035%=      5-min Rain = 0
KTAS 120221Z 16006KT 30/13 A3004 RMK A01 T02990128  RH  035%=      5-min Rain = 0
KTAS 120222Z 17006KT 30/13 A3004 RMK A01 T02990128  RH  035%=      5-min Rain = 0
KTAS 120223Z 16006KT 30/13 A3004 RMK A01 T02990128  RH  035%=      5-min Rain = 0
KTAS 120224Z 16006KT 30/13 A3004 RMK A01 T02990129  RH  035%=      5-min Rain = 0
KTAS 120225Z 16006KT 30/13 A3004 RMK A01 T02980129  RH  035%=      5-min Rain = 0
KTAS 120226Z 16005KT 30/13 A3004 RMK A01 T02980129  RH  035%=      5-min Rain = 0
KTAS 120227Z 16006KT 30/13 A3004 RMK A01 T02970129  RH  036%=      5-min Rain = 0
KTAS 120228Z 16006KT 30/13 A3004 RMK A01 T02970129  RH  036%=      5-min Rain = 0
KTAS 120229Z 17006KT 30/13 A3005 RMK A01 T02970129  RH  036%=      5-min Rain = 0
KTAS 120230Z 17006KT 30/13 A3005 RMK A01 T02970129  RH  036%=      5-min Rain = 0
KTAS 120231Z 17006KT 30/13 A3005 RMK A01 T02970129  RH  036%=      5-min Rain = 0
KTAS 120232Z 17006KT 30/13 A3005 RMK A01 T02970129  RH  036%=      5-min Rain = 0
KTAS 120233Z 16006KT 30/13 A3005 RMK A01 T02960129  RH  036%=      5-min Rain = 0
KTAS 120234Z 17006KT 30/13 A3005 RMK A01 T02960129  RH  036%=      5-min Rain = 0
KTAS 120235Z 17006KT 30/13 A3005 RMK A01 T02960129  RH  036%=      5-min Rain = 0
KTAS 120236Z 16006KT 30/13 A3005 RMK A01 T02960129  RH  036%=      5-min Rain = 0
KTAS 120237Z 16006KT 30/13 A3005 RMK A01 T02960129  RH  036%=      5-min Rain = 0
KTAS 120238Z 16005KT 30/13 A3005 RMK A01 T02950129  RH  036%=      5-min Rain = 0
KTAS 120239Z 16006KT 30/13 A3005 RMK A01 T02950129  RH  036%=      5-min Rain = 0
KTAS 120240Z 16005KT 30/13 A3005 RMK A01 T02950129  RH  036%=      5-min Rain = 0
KTAS 120241Z 15005KT 30/13 A3005 RMK A01 T02950129  RH  036%=      5-min Rain = 0
KTAS 120242Z 16005KT 30/13 A3005 RMK A01 T02950129  RH  036%=      5-min Rain = 0
KTAS 120243Z 15004KT 29/13 A3005 RMK A01 T02940130  RH  036%=      5-min Rain = 0
KTAS 120244Z 14004KT 29/13 A3005 RMK A01 T02940130  RH  037%=      5-min Rain = 0
KTAS 120245Z 14004KT 29/13 A3005 RMK A01 T02930131  RH  037%=      5-min Rain = 0
KTAS 120246Z 14004KT 29/13 A3005 RMK A01 T02920134  RH  038%=      5-min Rain = 0
KTAS 120247Z 13004KT 29/14 A3005 RMK A01 T02910137  RH  039%=      5-min Rain = 0
KTAS 120248Z 13005KT 29/14 A3006 RMK A01 T02900141  RH  040%=      5-min Rain = 0
KTAS 120249Z 13005KT 29/15 A3006 RMK A01 T02880146  RH  042%=      5-min Rain = 0
KTAS 120250Z 14005KT 29/15 A3006 RMK A01 T02870149  RH  043%=      5-min Rain = 0
KTAS 120251Z 14006KT 29/15 A3006 RMK A01 T02860150  RH  043%=      5-min Rain = 0
KTAS 120252Z 14006KT 29/15 A3006 RMK A01 T02850150  RH  044%=      5-min Rain = 0
KTAS 120253Z 14006KT 29/15 A3006 RMK A01 T02850149  RH  044%=      5-min Rain = 0
KTAS 120254Z 14006KT 29/15 A3006 RMK A01 T02850148  RH  043%=      5-min Rain = 0
KTAS 120255Z 15006KT 29/15 A3006 RMK A01 T02850147  RH  043%=      5-min Rain = 0
KTAS 120256Z 15007KT 29/14 A3006 RMK A01 T02860144  RH  042%=      5-min Rain = 0
KTAS 120257Z 15006KT 29/14 A3006 RMK A01 T02870143  RH  041%=      5-min Rain = 0
KTAS 120258Z 15007KT 29/14 A3006 RMK A01 T02870143  RH  041%=      5-min Rain = 0
KTAS 120259Z 15007KT 29/14 A3006 RMK A01 T02880143  RH  041%=      5-min Rain = 0
KTAS 120300Z 15007KT 29/14 A3006 RMK A01 T02880143  RH  041%=      5-min Rain = 0
KTAS 120301Z 15006KT 29/14 A3006 RMK A01 T02890143  RH  041%=      5-min Rain = 0
KTAS 120302Z 15006KT 29/14 A3006 RMK A01 T02890143  RH  041%=      5-min Rain = 0
KTAS 120303Z 15007KT 29/14 A3006 RMK A01 T02890142  RH  041%=      5-min Rain = 0
KTAS 120304Z 15007KT 29/14 A3006 RMK A01 T02890142  RH  041%=      5-min Rain = 0
KTAS 120305Z 15006KT 29/14 A3006 RMK A01 T02890142  RH  041%=      5-min Rain = 0
KTAS 120306Z 15007KT 29/14 A3006 RMK A01 T02900142  RH  041%=      5-min Rain = 0
KTAS 120307Z 15006KT 29/14 A3006 RMK A01 T02900143  RH  041%=      5-min Rain = 0
KTAS 120308Z 15006KT 29/15 A3006 RMK A01 T02900145  RH  041%=      5-min Rain = 0
KTAS 120309Z 15007KT 29/15 A3006 RMK A01 T02890148  RH  042%=      5-min Rain = 0
KTAS 120310Z 15007KT 29/16 A3006 RMK A01 T02870156  RH  045%=      5-min Rain = 0
KTAS 120311Z 15007KT 28/16 A3006 RMK A01 T02840160  RH  047%=      5-min Rain = 0
KTAS 120312Z 14007KT 28/16 A3006 RMK A01 T02810164  RH  049%=      5-min Rain = 0
KTAS 120313Z 15009KT 28/17 A3007 RMK A01 T02770167  RH  051%=      5-min Rain = 0
KTAS 120314Z 14017G24KT 27/16 A3007 RMK A01 T02740158  RH  049%=      5-min Rain = 0
KTAS 120315Z 12020G28KT 27/16 A3007 RMK A01 T02740155  RH  048%=      5-min Rain = 0
KTAS 120316Z 12025G32KT 27/16 A3007 RMK A01 T02680155  RH  050%=      5-min Rain = 0
KTAS 120317Z 12022G29KT 26/15 A3007 RMK A01 T02640154  RH  051%=      5-min Rain = 0
KTAS 120318Z 11021G28KT 26/15 A3007 RMK A01 T02640153  RH  050%=      5-min Rain = 0
KTAS 120319Z 11021KT 27/16 A3007 RMK A01 T02650155  RH  051%=      5-min Rain = 0
KTAS 120320Z 09024KT 25/16 A3007 RMK A01 T02540164  RH  057%=      5-min Rain = 0.01
KTAS 120321Z 09021KT 24/17 A3008 RMK A01 T02410166  RH  063%=      5-min Rain = 0
KTAS 120322Z 08021KT 24/17 A3007 RMK A01 T02360167  RH  065%=      5-min Rain = 0.01
KTAS 120323Z 09022G27KT 23/17 A3007 RMK A01 T02330167  RH  066%=      5-min Rain = 0
KTAS 120324Z 10023KT 23/17 A3007 RMK A01 T02340168  RH  067%=      5-min Rain = 0.01
KTAS 120325Z 09023KT 23/17 A3007 RMK A01 T02330169  RH  067%=      5-min Rain = 0
KTAS 120326Z 08020KT 24/17 A3007 RMK A01 T02350168  RH  066%=      5-min Rain = 0
KTAS 120327Z 08018G24KT 24/17 A3007 RMK A01 T02370168  RH  065%=      5-min Rain = 0
KTAS 120328Z 07017KT 24/17 A3007 RMK A01 T02380165  RH  064%=      5-min Rain = 0
KTAS 120329Z 08016KT 24/16 A3007 RMK A01 T02440164  RH  061%=      5-min Rain = 0
KTAS 120330Z 07015KT 24/17 A3007 RMK A01 T02420166  RH  063%=      5-min Rain = 0
KTAS 120331Z 06017G25KT 25/16 A3007 RMK A01 T02470158  RH  058%=      5-min Rain = 0
KTAS 120332Z 05015KT 25/17 A3008 RMK A01 T02510166  RH  059%=      5-min Rain = 0
KTAS 120333Z 06015G20KT 24/17 A3008 RMK A01 T02410167  RH  063%=      5-min Rain = 0
KTAS 120334Z 06011KT 24/17 A3008 RMK A01 T02380168  RH  065%=      5-min Rain = 0.01
KTAS 120335Z 06012KT 24/17 A3008 RMK A01 T02360167  RH  065%=      5-min Rain = 0
KTAS 120336Z 07010KT 24/16 A3008 RMK A01 T02410162  RH  061%=      5-min Rain = 0
KTAS 120337Z 08009KT 25/17 A3008 RMK A01 T02450166  RH  061%=      5-min Rain = 0
KTAS 120338Z 07009KT 24/17 A3008 RMK A01 T02420168  RH  063%=      5-min Rain = 0
KTAS 120339Z 06009KT 24/17 A3008 RMK A01 T02410168  RH  064%=      5-min Rain = 0
KTAS 120340Z 07010KT 24/17 A3008 RMK A01 T02410169  RH  064%=      5-min Rain = 0
KTAS 120341Z 07009KT 24/17 A3008 RMK A01 T02410168  RH  064%=      5-min Rain = 0
KTAS 120342Z 07010KT 24/17 A3008 RMK A01 T02420166  RH  062%=      5-min Rain = 0
KTAS 120343Z 06011KT 25/16 A3008 RMK A01 T02470161  RH  059%=      5-min Rain = 0
KTAS 120344Z 05011KT 25/16 A3008 RMK A01 T02530162  RH  057%=      5-min Rain = 0
KTAS 120345Z 07009KT 25/16 A3008 RMK A01 T02520163  RH  058%=      5-min Rain = 0
KTAS 120346Z 06010KT 25/16 A3008 RMK A01 T02510162  RH  058%=      5-min Rain = 0
KTAS 120347Z 06009KT 25/16 A3008 RMK A01 T02520162  RH  057%=      5-min Rain = 0
KTAS 120348Z 07008KT 25/16 A3008 RMK A01 T02520162  RH  057%=      5-min Rain = 0
KTAS 120349Z 06008KT 25/16 A3008 RMK A01 T02520163  RH  058%=      5-min Rain = 0
KTAS 120350Z 06006KT 25/17 A3009 RMK A01 T02510166  RH  059%=      5-min Rain = 0
KTAS 120351Z 08006KT 25/17 A3009 RMK A01 T02490166  RH  060%=      5-min Rain = 0
KTAS 120352Z 09005KT 25/17 A3009 RMK A01 T02480168  RH  061%=      5-min Rain = 0
KTAS 120353Z 09005KT 25/17 A3009 RMK A01 T02470169  RH  062%=      5-min Rain = 0
KTAS 120354Z 09005KT 25/17 A3009 RMK A01 T02460171  RH  063%=      5-min Rain = 0
KTAS 120355Z 09005KT 25/17 A3009 RMK A01 T02450171  RH  063%=      5-min Rain = 0
KTAS 120356Z 10005KT 25/17 A3009 RMK A01 T02450173  RH  064%=      5-min Rain = 0
KTAS 120357Z 10005KT 25/17 A3009 RMK A01 T02450172  RH  064%=      5-min Rain = 0
KTAS 120358Z 10004KT 25/17 A3009 RMK A01 T02450172  RH  063%=      5-min Rain = 0
KTAS 120359Z 10004KT 25/17 A3009 RMK A01 T02460172  RH  063%=      5-min Rain = 0
KTAS 120400Z 11003KT 25/17 A3009 RMK A01 T02470171  RH  063%=      5-min Rain = 0
KTAS 120401Z 10003KT 25/17 A3009 RMK A01 T02470171  RH  063%=      5-min Rain = 0
KTAS 120402Z 11004KT 25/17 A3009 RMK A01 T02480173  RH  063%=      5-min Rain = 0
KTAS 120403Z 12004KT 25/17 A3009 RMK A01 T02490173  RH  063%=      5-min Rain = 0
KTAS 120404Z 11003KT 25/17 A3009 RMK A01 T02490173  RH  063%=      5-min Rain = 0
KTAS 120405Z 11003KT 25/18 A3009 RMK A01 T02500176  RH  064%=      5-min Rain = 0
KTAS 120406Z 11004KT 25/18 A3009 RMK A01 T02500177  RH  064%=      5-min Rain = 0
KTAS 120407Z 12004KT 25/17 A3009 RMK A01 T02500174  RH  063%=      5-min Rain = 0
KTAS 120408Z 12004KT 25/17 A3009 RMK A01 T02510174  RH  062%=      5-min Rain = 0
KTAS 120409Z 13004KT 25/17 A3009 RMK A01 T02520174  RH  062%=      5-min Rain = 0
KTAS 120410Z 13004KT 25/18 A3009 RMK A01 T02530176  RH  062%=      5-min Rain = 0
KTAS 120411Z 13004KT 25/18 A3009 RMK A01 T02540178  RH  063%=      5-min Rain = 0
KTAS 120412Z 12004KT 25/18 A3009 RMK A01 T02540179  RH  063%=      5-min Rain = 0
KTAS 120413Z 12004KT 25/18 A3009 RMK A01 T02540180  RH  064%=      5-min Rain = 0
KTAS 120414Z 12004KT 25/18 A3009 RMK A01 T02540180  RH  063%=      5-min Rain = 0
KTAS 120415Z 12004KT 25/18 A3009 RMK A01 T02540180  RH  063%=      5-min Rain = 0
KTAS 120416Z 12005KT 25/18 A3009 RMK A01 T02540181  RH  064%=      5-min Rain = 0
KTAS 120417Z 12005KT 26/18 A3009 RMK A01 T02550181  RH  064%=      5-min Rain = 0
KTAS 120418Z 12005KT 26/18 A3009 RMK A01 T02550182  RH  064%=      5-min Rain = 0
KTAS 120419Z 12005KT 25/18 A3009 RMK A01 T02540180  RH  063%=      5-min Rain = 0
KTAS 120420Z 12005KT 25/18 A3009 RMK A01 T02540181  RH  064%=      5-min Rain = 0
KTAS 120421Z 12005KT 25/18 A3009 RMK A01 T02540180  RH  063%=      5-min Rain = 0
KTAS 120422Z 12004KT 25/18 A3009 RMK A01 T02540181  RH  064%=      5-min Rain = 0
KTAS 120423Z 12005KT 25/18 A3009 RMK A01 T02530179  RH  063%=      5-min Rain = 0
KTAS 120424Z 12005KT 25/18 A3009 RMK A01 T02530179  RH  063%=      5-min Rain = 0
KTAS 120425Z 11006KT 25/18 A3009 RMK A01 T02530180  RH  064%=      5-min Rain = 0
KTAS 120426Z 11005KT 25/18 A3009 RMK A01 T02530179  RH  063%=      5-min Rain = 0
KTAS 120427Z 12004KT 25/18 A3009 RMK A01 T02530181  RH  064%=      5-min Rain = 0
KTAS 120428Z 12005KT 25/18 A3009 RMK A01 T02530181  RH  064%=      5-min Rain = 0
KTAS 120429Z 12005KT 25/18 A3009 RMK A01 T02520180  RH  064%=      5-min Rain = 0
KTAS 120430Z 11005KT 25/18 A3009 RMK A01 T02520179  RH  064%=      5-min Rain = 0
KTAS 120431Z 12005KT 25/18 A3009 RMK A01 T02530180  RH  064%=      5-min Rain = 0
KTAS 120432Z 12004KT 25/18 A3009 RMK A01 T02520181  RH  065%=      5-min Rain = 0
KTAS 120433Z 12004KT 25/18 A3009 RMK A01 T02520183  RH  065%=      5-min Rain = 0
KTAS 120434Z 12004KT 25/18 A3009 RMK A01 T02520182  RH  065%=      5-min Rain = 0
KTAS 120435Z 12005KT 25/18 A3009 RMK A01 T02510180  RH  065%=      5-min Rain = 0
KTAS 120436Z 13005KT 25/18 A3009 RMK A01 T02510179  RH  064%=      5-min Rain = 0
KTAS 120437Z 13004KT 25/18 A3009 RMK A01 T02510180  RH  064%=      5-min Rain = 0
KTAS 120438Z 13004KT 25/18 A3009 RMK A01 T02510179  RH  064%=      5-min Rain = 0
KTAS 120439Z 13004KT 25/18 A3009 RMK A01 T02510178  RH  064%=      5-min Rain = 0
KTAS 120440Z 13005KT 25/18 A3009 RMK A01 T02520178  RH  064%=      5-min Rain = 0
KTAS 120441Z 13005KT 25/18 A3009 RMK A01 T02520179  RH  064%=      5-min Rain = 0
KTAS 120442Z 13005KT 25/18 A3009 RMK A01 T02520179  RH  064%=      5-min Rain = 0
KTAS 120443Z 13005KT 25/18 A3009 RMK A01 T02520180  RH  065%=      5-min Rain = 0
KTAS 120444Z 13005KT 25/18 A3009 RMK A01 T02510180  RH  065%=      5-min Rain = 0
KTAS 120445Z 13005KT 25/18 A3009 RMK A01 T02510181  RH  065%=      5-min Rain = 0
KTAS 120446Z 14005KT 25/18 A3009 RMK A01 T02510181  RH  065%=      5-min Rain = 0
KTAS 120447Z 14005KT 25/18 A3009 RMK A01 T02510181  RH  065%=      5-min Rain = 0
KTAS 120448Z 14005KT 25/18 A3009 RMK A01 T02500181  RH  066%=      5-min Rain = 0
KTAS 120449Z 14005KT 25/18 A3009 RMK A01 T02500181  RH  066%=      5-min Rain = 0
KTAS 120450Z 14005KT 25/18 A3009 RMK A01 T02500181  RH  065%=      5-min Rain = 0
KTAS 120451Z 14005KT 25/18 A3009 RMK A01 T02490179  RH  065%=      5-min Rain = 0
KTAS 120452Z 14005KT 25/18 A3009 RMK A01 T02490178  RH  065%=      5-min Rain = 0
KTAS 120453Z 14005KT 25/18 A3009 RMK A01 T02500178  RH  064%=      5-min Rain = 0
KTAS 120454Z 14006KT 25/18 A3009 RMK A01 T02500178  RH  064%=      5-min Rain = 0
KTAS 120455Z 14006KT 25/18 A3009 RMK A01 T02500177  RH  064%=      5-min Rain = 0
KTAS 120456Z 14006KT 25/18 A3009 RMK A01 T02500178  RH  065%=      5-min Rain = 0
KTAS 120457Z 13006KT 25/18 A3009 RMK A01 T02490178  RH  065%=      5-min Rain = 0
KTAS 120458Z 13006KT 25/18 A3009 RMK A01 T02480178  RH  065%=      5-min Rain = 0
KTAS 120459Z 13006KT 25/18 A3009 RMK A01 T02480177  RH  065%=      5-min Rain = 0

Page generated in 0.0356 seconds.